<?xml version="1.0" encoding="UTF-8" standalone="no" ?>
<gpx xmlns="http://www.topografix.com/GPX/1/1" xmlns:xsi="http://www.w3.org/2001/XMLSchema-instance" xsi:schemaLocation="http://www.topografix.com/GPX/1/1 http://www.topografix.com/GPX/1/1/gpx.xsd" version="1.1" creator="VisuGPX - https://www.visugpx.com">
  <metadata>
    <name>21 km de la maison</name>
    <desc><![CDATA[faudra que je le fasse..]]></desc>
  </metadata>
  <trk>
    <name><![CDATA[--Launaguet-- OR-5648443:21 de la maison]]></name>
    <trkseg>
      <trkpt lat="43.6863" lon="1.45886">
        <ele>154</ele>
        <time>2016-01-23T21:55:31Z</time>
      </trkpt>
      <trkpt lat="43.68638" lon="1.45873">
        <ele>154</ele>
        <time>2016-01-23T21:57:31Z</time>
      </trkpt>
      <trkpt lat="43.68643" lon="1.45865">
        <ele>153</ele>
        <time>2016-01-23T21:59:31Z</time>
      </trkpt>
      <trkpt lat="43.68651" lon="1.45856">
        <ele>153</ele>
        <time>2016-01-23T22:01:31Z</time>
      </trkpt>
      <trkpt lat="43.68717" lon="1.45808">
        <ele>155</ele>
        <time>2016-01-23T22:03:31Z</time>
      </trkpt>
      <trkpt lat="43.68737" lon="1.45795">
        <ele>156</ele>
        <time>2016-01-23T22:05:31Z</time>
      </trkpt>
      <trkpt lat="43.68743" lon="1.45791">
        <ele>156</ele>
        <time>2016-01-23T22:07:31Z</time>
      </trkpt>
      <trkpt lat="43.68752" lon="1.45782">
        <ele>156</ele>
        <time>2016-01-23T22:09:31Z</time>
      </trkpt>
      <trkpt lat="43.68752" lon="1.45782">
        <ele>156</ele>
        <time>2016-01-23T22:11:31Z</time>
      </trkpt>
      <trkpt lat="43.68727" lon="1.45784">
        <ele>154</ele>
        <time>2016-01-23T22:13:31Z</time>
      </trkpt>
      <trkpt lat="43.68712" lon="1.45786">
        <ele>152</ele>
        <time>2016-01-23T22:15:31Z</time>
      </trkpt>
      <trkpt lat="43.68703" lon="1.45787">
        <ele>152</ele>
        <time>2016-01-23T22:17:31Z</time>
      </trkpt>
      <trkpt lat="43.6868" lon="1.45793">
        <ele>150</ele>
        <time>2016-01-23T22:19:31Z</time>
      </trkpt>
      <trkpt lat="43.68655" lon="1.45801">
        <ele>149</ele>
        <time>2016-01-23T22:21:31Z</time>
      </trkpt>
      <trkpt lat="43.68633" lon="1.45812">
        <ele>148</ele>
        <time>2016-01-23T22:23:31Z</time>
      </trkpt>
      <trkpt lat="43.68612" lon="1.45826">
        <ele>148</ele>
        <time>2016-01-23T22:25:31Z</time>
      </trkpt>
      <trkpt lat="43.68609" lon="1.45827">
        <ele>148</ele>
        <time>2016-01-23T22:27:31Z</time>
      </trkpt>
      <trkpt lat="43.68609" lon="1.45827">
        <ele>148</ele>
        <time>2016-01-23T22:29:31Z</time>
      </trkpt>
      <trkpt lat="43.68567" lon="1.45743">
        <ele>143</ele>
        <time>2016-01-23T22:31:31Z</time>
      </trkpt>
      <trkpt lat="43.68567" lon="1.45743">
        <ele>143</ele>
        <time>2016-01-23T22:33:31Z</time>
      </trkpt>
      <trkpt lat="43.68609" lon="1.45827">
        <ele>148</ele>
        <time>2016-01-23T22:35:31Z</time>
      </trkpt>
      <trkpt lat="43.68609" lon="1.45827">
        <ele>148</ele>
        <time>2016-01-23T22:37:31Z</time>
      </trkpt>
      <trkpt lat="43.68612" lon="1.45826">
        <ele>148</ele>
        <time>2016-01-23T22:39:31Z</time>
      </trkpt>
      <trkpt lat="43.68633" lon="1.45812">
        <ele>148</ele>
        <time>2016-01-23T22:41:31Z</time>
      </trkpt>
      <trkpt lat="43.68655" lon="1.45801">
        <ele>149</ele>
        <time>2016-01-23T22:43:31Z</time>
      </trkpt>
      <trkpt lat="43.6868" lon="1.45793">
        <ele>150</ele>
        <time>2016-01-23T22:45:31Z</time>
      </trkpt>
      <trkpt lat="43.68703" lon="1.45787">
        <ele>152</ele>
        <time>2016-01-23T22:47:31Z</time>
      </trkpt>
      <trkpt lat="43.68712" lon="1.45786">
        <ele>152</ele>
        <time>2016-01-23T22:49:31Z</time>
      </trkpt>
      <trkpt lat="43.68727" lon="1.45784">
        <ele>154</ele>
        <time>2016-01-23T22:51:31Z</time>
      </trkpt>
      <trkpt lat="43.68752" lon="1.45782">
        <ele>156</ele>
        <time>2016-01-23T22:53:31Z</time>
      </trkpt>
      <trkpt lat="43.68763" lon="1.4578">
        <ele>156</ele>
        <time>2016-01-23T22:55:31Z</time>
      </trkpt>
      <trkpt lat="43.68769" lon="1.45778">
        <ele>156</ele>
        <time>2016-01-23T22:57:31Z</time>
      </trkpt>
      <trkpt lat="43.68782" lon="1.45773">
        <ele>157</ele>
        <time>2016-01-23T22:59:31Z</time>
      </trkpt>
      <trkpt lat="43.68797" lon="1.45769">
        <ele>157</ele>
        <time>2016-01-23T23:01:31Z</time>
      </trkpt>
      <trkpt lat="43.68807" lon="1.45767">
        <ele>158</ele>
        <time>2016-01-23T23:03:31Z</time>
      </trkpt>
      <trkpt lat="43.6882" lon="1.45764">
        <ele>158</ele>
        <time>2016-01-23T23:05:31Z</time>
      </trkpt>
      <trkpt lat="43.68835" lon="1.45762">
        <ele>159</ele>
        <time>2016-01-23T23:07:31Z</time>
      </trkpt>
      <trkpt lat="43.68855" lon="1.45761">
        <ele>159</ele>
        <time>2016-01-23T23:09:31Z</time>
      </trkpt>
      <trkpt lat="43.68889" lon="1.45759">
        <ele>160</ele>
        <time>2016-01-23T23:11:31Z</time>
      </trkpt>
      <trkpt lat="43.6892" lon="1.45758">
        <ele>161</ele>
        <time>2016-01-23T23:13:31Z</time>
      </trkpt>
      <trkpt lat="43.68942" lon="1.45758">
        <ele>162</ele>
        <time>2016-01-23T23:15:31Z</time>
      </trkpt>
      <trkpt lat="43.6897" lon="1.45756">
        <ele>163</ele>
        <time>2016-01-23T23:17:31Z</time>
      </trkpt>
      <trkpt lat="43.68993" lon="1.45752">
        <ele>163</ele>
        <time>2016-01-23T23:19:31Z</time>
      </trkpt>
      <trkpt lat="43.69034" lon="1.45743">
        <ele>163</ele>
        <time>2016-01-23T23:21:31Z</time>
      </trkpt>
      <trkpt lat="43.69044" lon="1.45739">
        <ele>163</ele>
        <time>2016-01-23T23:23:31Z</time>
      </trkpt>
      <trkpt lat="43.69062" lon="1.45734">
        <ele>164</ele>
        <time>2016-01-23T23:25:31Z</time>
      </trkpt>
      <trkpt lat="43.69106" lon="1.4572">
        <ele>165</ele>
        <time>2016-01-23T23:27:31Z</time>
      </trkpt>
      <trkpt lat="43.69166" lon="1.45702">
        <ele>167</ele>
        <time>2016-01-23T23:29:31Z</time>
      </trkpt>
      <trkpt lat="43.69175" lon="1.45699">
        <ele>167</ele>
        <time>2016-01-23T23:31:31Z</time>
      </trkpt>
      <trkpt lat="43.6921" lon="1.45689">
        <ele>168</ele>
        <time>2016-01-23T23:33:31Z</time>
      </trkpt>
      <trkpt lat="43.69241" lon="1.4568">
        <ele>168</ele>
        <time>2016-01-23T23:35:31Z</time>
      </trkpt>
      <trkpt lat="43.69255" lon="1.45678">
        <ele>168</ele>
        <time>2016-01-23T23:37:31Z</time>
      </trkpt>
      <trkpt lat="43.69281" lon="1.4568">
        <ele>169</ele>
        <time>2016-01-23T23:39:31Z</time>
      </trkpt>
      <trkpt lat="43.69308" lon="1.45689">
        <ele>171</ele>
        <time>2016-01-23T23:41:31Z</time>
      </trkpt>
      <trkpt lat="43.69311" lon="1.4569">
        <ele>171</ele>
        <time>2016-01-23T23:43:31Z</time>
      </trkpt>
      <trkpt lat="43.69315" lon="1.45691">
        <ele>171</ele>
        <time>2016-01-23T23:45:31Z</time>
      </trkpt>
      <trkpt lat="43.69318" lon="1.45691">
        <ele>171</ele>
        <time>2016-01-23T23:47:31Z</time>
      </trkpt>
      <trkpt lat="43.69321" lon="1.4569">
        <ele>171</ele>
        <time>2016-01-23T23:49:31Z</time>
      </trkpt>
      <trkpt lat="43.69321" lon="1.4569">
        <ele>171</ele>
        <time>2016-01-23T23:51:31Z</time>
      </trkpt>
      <trkpt lat="43.69323" lon="1.45694">
        <ele>172</ele>
        <time>2016-01-23T23:53:31Z</time>
      </trkpt>
      <trkpt lat="43.69324" lon="1.45696">
        <ele>172</ele>
        <time>2016-01-23T23:55:31Z</time>
      </trkpt>
      <trkpt lat="43.69324" lon="1.45698">
        <ele>172</ele>
        <time>2016-01-23T23:57:31Z</time>
      </trkpt>
      <trkpt lat="43.69326" lon="1.45699">
        <ele>172</ele>
        <time>2016-01-23T23:59:31Z</time>
      </trkpt>
      <trkpt lat="43.69327" lon="1.457">
        <ele>172</ele>
        <time>2016-01-24T00:01:31Z</time>
      </trkpt>
      <trkpt lat="43.69327" lon="1.457">
        <ele>172</ele>
        <time>2016-01-24T00:03:31Z</time>
      </trkpt>
      <trkpt lat="43.69331" lon="1.45702">
        <ele>172</ele>
        <time>2016-01-24T00:05:31Z</time>
      </trkpt>
      <trkpt lat="43.69357" lon="1.45713">
        <ele>173</ele>
        <time>2016-01-24T00:07:31Z</time>
      </trkpt>
      <trkpt lat="43.69388" lon="1.45723">
        <ele>174</ele>
        <time>2016-01-24T00:09:31Z</time>
      </trkpt>
      <trkpt lat="43.69395" lon="1.45725">
        <ele>174</ele>
        <time>2016-01-24T00:11:31Z</time>
      </trkpt>
      <trkpt lat="43.69404" lon="1.45726">
        <ele>174</ele>
        <time>2016-01-24T00:13:31Z</time>
      </trkpt>
      <trkpt lat="43.69413" lon="1.45727">
        <ele>175</ele>
        <time>2016-01-24T00:15:31Z</time>
      </trkpt>
      <trkpt lat="43.69423" lon="1.45727">
        <ele>175</ele>
        <time>2016-01-24T00:17:31Z</time>
      </trkpt>
      <trkpt lat="43.69432" lon="1.45727">
        <ele>176</ele>
        <time>2016-01-24T00:19:31Z</time>
      </trkpt>
      <trkpt lat="43.69439" lon="1.45725">
        <ele>177</ele>
        <time>2016-01-24T00:21:31Z</time>
      </trkpt>
      <trkpt lat="43.69448" lon="1.45723">
        <ele>177</ele>
        <time>2016-01-24T00:23:31Z</time>
      </trkpt>
      <trkpt lat="43.69456" lon="1.45721">
        <ele>178</ele>
        <time>2016-01-24T00:25:31Z</time>
      </trkpt>
      <trkpt lat="43.69466" lon="1.45717">
        <ele>178</ele>
        <time>2016-01-24T00:27:31Z</time>
      </trkpt>
      <trkpt lat="43.6948" lon="1.4571">
        <ele>179</ele>
        <time>2016-01-24T00:29:31Z</time>
      </trkpt>
      <trkpt lat="43.69492" lon="1.45704">
        <ele>179</ele>
        <time>2016-01-24T00:31:31Z</time>
      </trkpt>
      <trkpt lat="43.69498" lon="1.457">
        <ele>179</ele>
        <time>2016-01-24T00:33:31Z</time>
      </trkpt>
      <trkpt lat="43.69505" lon="1.45696">
        <ele>180</ele>
        <time>2016-01-24T00:35:31Z</time>
      </trkpt>
      <trkpt lat="43.6951" lon="1.45692">
        <ele>179</ele>
        <time>2016-01-24T00:37:31Z</time>
      </trkpt>
      <trkpt lat="43.69518" lon="1.45686">
        <ele>179</ele>
        <time>2016-01-24T00:39:31Z</time>
      </trkpt>
      <trkpt lat="43.69534" lon="1.45675">
        <ele>180</ele>
        <time>2016-01-24T00:41:31Z</time>
      </trkpt>
      <trkpt lat="43.6955" lon="1.45663">
        <ele>180</ele>
        <time>2016-01-24T00:43:31Z</time>
      </trkpt>
      <trkpt lat="43.69567" lon="1.4565">
        <ele>180</ele>
        <time>2016-01-24T00:45:31Z</time>
      </trkpt>
      <trkpt lat="43.69575" lon="1.45646">
        <ele>180</ele>
        <time>2016-01-24T00:47:31Z</time>
      </trkpt>
      <trkpt lat="43.69585" lon="1.45642">
        <ele>181</ele>
        <time>2016-01-24T00:49:31Z</time>
      </trkpt>
      <trkpt lat="43.69594" lon="1.45639">
        <ele>181</ele>
        <time>2016-01-24T00:51:31Z</time>
      </trkpt>
      <trkpt lat="43.69604" lon="1.45639">
        <ele>181</ele>
        <time>2016-01-24T00:53:31Z</time>
      </trkpt>
      <trkpt lat="43.69612" lon="1.45638">
        <ele>181</ele>
        <time>2016-01-24T00:55:31Z</time>
      </trkpt>
      <trkpt lat="43.69626" lon="1.4564">
        <ele>182</ele>
        <time>2016-01-24T00:57:31Z</time>
      </trkpt>
      <trkpt lat="43.69637" lon="1.45645">
        <ele>182</ele>
        <time>2016-01-24T00:59:31Z</time>
      </trkpt>
      <trkpt lat="43.69649" lon="1.45652">
        <ele>183</ele>
        <time>2016-01-24T01:01:31Z</time>
      </trkpt>
      <trkpt lat="43.69665" lon="1.45666">
        <ele>185</ele>
        <time>2016-01-24T01:03:31Z</time>
      </trkpt>
      <trkpt lat="43.69675" lon="1.4568">
        <ele>185</ele>
        <time>2016-01-24T01:05:31Z</time>
      </trkpt>
      <trkpt lat="43.69691" lon="1.45715">
        <ele>185</ele>
        <time>2016-01-24T01:07:31Z</time>
      </trkpt>
      <trkpt lat="43.69693" lon="1.45723">
        <ele>185</ele>
        <time>2016-01-24T01:09:31Z</time>
      </trkpt>
      <trkpt lat="43.69696" lon="1.45736">
        <ele>185</ele>
        <time>2016-01-24T01:11:31Z</time>
      </trkpt>
      <trkpt lat="43.69698" lon="1.45748">
        <ele>185</ele>
        <time>2016-01-24T01:13:31Z</time>
      </trkpt>
      <trkpt lat="43.69699" lon="1.4576">
        <ele>186</ele>
        <time>2016-01-24T01:15:31Z</time>
      </trkpt>
      <trkpt lat="43.69698" lon="1.45772">
        <ele>186</ele>
        <time>2016-01-24T01:17:31Z</time>
      </trkpt>
      <trkpt lat="43.69698" lon="1.45782">
        <ele>186</ele>
        <time>2016-01-24T01:19:31Z</time>
      </trkpt>
      <trkpt lat="43.69696" lon="1.45792">
        <ele>186</ele>
        <time>2016-01-24T01:21:31Z</time>
      </trkpt>
      <trkpt lat="43.69693" lon="1.45805">
        <ele>187</ele>
        <time>2016-01-24T01:23:31Z</time>
      </trkpt>
      <trkpt lat="43.6969" lon="1.45815">
        <ele>187</ele>
        <time>2016-01-24T01:25:31Z</time>
      </trkpt>
      <trkpt lat="43.69669" lon="1.45865">
        <ele>189</ele>
        <time>2016-01-24T01:27:31Z</time>
      </trkpt>
      <trkpt lat="43.69668" lon="1.45868">
        <ele>189</ele>
        <time>2016-01-24T01:29:31Z</time>
      </trkpt>
      <trkpt lat="43.69663" lon="1.45879">
        <ele>190</ele>
        <time>2016-01-24T01:31:31Z</time>
      </trkpt>
      <trkpt lat="43.69649" lon="1.45913">
        <ele>189</ele>
        <time>2016-01-24T01:33:31Z</time>
      </trkpt>
      <trkpt lat="43.69632" lon="1.45954">
        <ele>189</ele>
        <time>2016-01-24T01:35:31Z</time>
      </trkpt>
      <trkpt lat="43.69564" lon="1.46127">
        <ele>190</ele>
        <time>2016-01-24T01:37:31Z</time>
      </trkpt>
      <trkpt lat="43.6955" lon="1.46165">
        <ele>191</ele>
        <time>2016-01-24T01:39:31Z</time>
      </trkpt>
      <trkpt lat="43.69532" lon="1.46218">
        <ele>193</ele>
        <time>2016-01-24T01:41:31Z</time>
      </trkpt>
      <trkpt lat="43.69523" lon="1.46248">
        <ele>193</ele>
        <time>2016-01-24T01:43:31Z</time>
      </trkpt>
      <trkpt lat="43.69512" lon="1.46288">
        <ele>194</ele>
        <time>2016-01-24T01:45:31Z</time>
      </trkpt>
      <trkpt lat="43.69495" lon="1.46349">
        <ele>195</ele>
        <time>2016-01-24T01:47:31Z</time>
      </trkpt>
      <trkpt lat="43.69478" lon="1.46415">
        <ele>196</ele>
        <time>2016-01-24T01:49:31Z</time>
      </trkpt>
      <trkpt lat="43.69478" lon="1.46415">
        <ele>196</ele>
        <time>2016-01-24T01:51:31Z</time>
      </trkpt>
      <trkpt lat="43.696" lon="1.46479">
        <ele>188</ele>
        <time>2016-01-24T01:53:31Z</time>
      </trkpt>
      <trkpt lat="43.696" lon="1.46479">
        <ele>188</ele>
        <time>2016-01-24T01:55:31Z</time>
      </trkpt>
      <trkpt lat="43.69576" lon="1.46584">
        <ele>191</ele>
        <time>2016-01-24T01:57:31Z</time>
      </trkpt>
      <trkpt lat="43.69576" lon="1.46584">
        <ele>191</ele>
        <time>2016-01-24T01:59:31Z</time>
      </trkpt>
      <trkpt lat="43.696" lon="1.46479">
        <ele>188</ele>
        <time>2016-01-24T02:01:31Z</time>
      </trkpt>
      <trkpt lat="43.696" lon="1.46479">
        <ele>188</ele>
        <time>2016-01-24T02:03:31Z</time>
      </trkpt>
      <trkpt lat="43.6962" lon="1.46485">
        <ele>188</ele>
        <time>2016-01-24T02:05:31Z</time>
      </trkpt>
      <trkpt lat="43.69624" lon="1.46486">
        <ele>188</ele>
        <time>2016-01-24T02:07:31Z</time>
      </trkpt>
      <trkpt lat="43.6966" lon="1.46491">
        <ele>188</ele>
        <time>2016-01-24T02:09:31Z</time>
      </trkpt>
      <trkpt lat="43.69669" lon="1.46493">
        <ele>188</ele>
        <time>2016-01-24T02:11:31Z</time>
      </trkpt>
      <trkpt lat="43.69676" lon="1.46496">
        <ele>188</ele>
        <time>2016-01-24T02:13:31Z</time>
      </trkpt>
      <trkpt lat="43.69682" lon="1.46499">
        <ele>188</ele>
        <time>2016-01-24T02:15:31Z</time>
      </trkpt>
      <trkpt lat="43.69688" lon="1.46503">
        <ele>188</ele>
        <time>2016-01-24T02:17:31Z</time>
      </trkpt>
      <trkpt lat="43.69694" lon="1.46509">
        <ele>189</ele>
        <time>2016-01-24T02:19:31Z</time>
      </trkpt>
      <trkpt lat="43.69708" lon="1.46522">
        <ele>189</ele>
        <time>2016-01-24T02:21:31Z</time>
      </trkpt>
      <trkpt lat="43.69717" lon="1.46534">
        <ele>189</ele>
        <time>2016-01-24T02:23:31Z</time>
      </trkpt>
      <trkpt lat="43.69724" lon="1.46547">
        <ele>190</ele>
        <time>2016-01-24T02:25:31Z</time>
      </trkpt>
      <trkpt lat="43.69731" lon="1.46563">
        <ele>190</ele>
        <time>2016-01-24T02:27:31Z</time>
      </trkpt>
      <trkpt lat="43.69736" lon="1.46576">
        <ele>190</ele>
        <time>2016-01-24T02:29:31Z</time>
      </trkpt>
      <trkpt lat="43.69741" lon="1.46591">
        <ele>191</ele>
        <time>2016-01-24T02:31:31Z</time>
      </trkpt>
      <trkpt lat="43.69745" lon="1.46611">
        <ele>191</ele>
        <time>2016-01-24T02:33:31Z</time>
      </trkpt>
      <trkpt lat="43.69753" lon="1.46641">
        <ele>193</ele>
        <time>2016-01-24T02:35:31Z</time>
      </trkpt>
      <trkpt lat="43.69757" lon="1.46655">
        <ele>194</ele>
        <time>2016-01-24T02:37:31Z</time>
      </trkpt>
      <trkpt lat="43.69764" lon="1.46679">
        <ele>196</ele>
        <time>2016-01-24T02:39:31Z</time>
      </trkpt>
      <trkpt lat="43.69767" lon="1.46688">
        <ele>197</ele>
        <time>2016-01-24T02:41:31Z</time>
      </trkpt>
      <trkpt lat="43.69772" lon="1.46696">
        <ele>198</ele>
        <time>2016-01-24T02:43:31Z</time>
      </trkpt>
      <trkpt lat="43.69776" lon="1.46703">
        <ele>198</ele>
        <time>2016-01-24T02:45:31Z</time>
      </trkpt>
      <trkpt lat="43.69782" lon="1.46709">
        <ele>199</ele>
        <time>2016-01-24T02:47:31Z</time>
      </trkpt>
      <trkpt lat="43.69788" lon="1.46715">
        <ele>200</ele>
        <time>2016-01-24T02:49:31Z</time>
      </trkpt>
      <trkpt lat="43.69792" lon="1.46718">
        <ele>200</ele>
        <time>2016-01-24T02:51:31Z</time>
      </trkpt>
      <trkpt lat="43.69795" lon="1.46719">
        <ele>200</ele>
        <time>2016-01-24T02:53:31Z</time>
      </trkpt>
      <trkpt lat="43.69797" lon="1.4672">
        <ele>200</ele>
        <time>2016-01-24T02:55:31Z</time>
      </trkpt>
      <trkpt lat="43.69804" lon="1.46721">
        <ele>201</ele>
        <time>2016-01-24T02:57:31Z</time>
      </trkpt>
      <trkpt lat="43.69817" lon="1.46722">
        <ele>201</ele>
        <time>2016-01-24T02:59:31Z</time>
      </trkpt>
      <trkpt lat="43.69866" lon="1.4672">
        <ele>203</ele>
        <time>2016-01-24T03:01:31Z</time>
      </trkpt>
      <trkpt lat="43.69894" lon="1.46717">
        <ele>204</ele>
        <time>2016-01-24T03:03:31Z</time>
      </trkpt>
      <trkpt lat="43.69896" lon="1.46716">
        <ele>204</ele>
        <time>2016-01-24T03:05:31Z</time>
      </trkpt>
      <trkpt lat="43.69922" lon="1.46705">
        <ele>204</ele>
        <time>2016-01-24T03:07:31Z</time>
      </trkpt>
      <trkpt lat="43.69926" lon="1.46703">
        <ele>204</ele>
        <time>2016-01-24T03:09:31Z</time>
      </trkpt>
      <trkpt lat="43.69935" lon="1.46702">
        <ele>204</ele>
        <time>2016-01-24T03:11:31Z</time>
      </trkpt>
      <trkpt lat="43.69986" lon="1.46699">
        <ele>202</ele>
        <time>2016-01-24T03:13:31Z</time>
      </trkpt>
      <trkpt lat="43.70006" lon="1.46698">
        <ele>201</ele>
        <time>2016-01-24T03:15:31Z</time>
      </trkpt>
      <trkpt lat="43.70015" lon="1.46697">
        <ele>200</ele>
        <time>2016-01-24T03:17:31Z</time>
      </trkpt>
      <trkpt lat="43.70034" lon="1.46694">
        <ele>200</ele>
        <time>2016-01-24T03:19:31Z</time>
      </trkpt>
      <trkpt lat="43.70039" lon="1.46692">
        <ele>199</ele>
        <time>2016-01-24T03:21:31Z</time>
      </trkpt>
      <trkpt lat="43.70047" lon="1.46689">
        <ele>199</ele>
        <time>2016-01-24T03:23:31Z</time>
      </trkpt>
      <trkpt lat="43.70055" lon="1.46684">
        <ele>199</ele>
        <time>2016-01-24T03:25:31Z</time>
      </trkpt>
      <trkpt lat="43.70065" lon="1.46677">
        <ele>198</ele>
        <time>2016-01-24T03:27:31Z</time>
      </trkpt>
      <trkpt lat="43.70075" lon="1.46673">
        <ele>198</ele>
        <time>2016-01-24T03:29:31Z</time>
      </trkpt>
      <trkpt lat="43.70083" lon="1.46671">
        <ele>197</ele>
        <time>2016-01-24T03:31:31Z</time>
      </trkpt>
      <trkpt lat="43.70088" lon="1.46671">
        <ele>197</ele>
        <time>2016-01-24T03:33:31Z</time>
      </trkpt>
      <trkpt lat="43.701" lon="1.46671">
        <ele>198</ele>
        <time>2016-01-24T03:35:31Z</time>
      </trkpt>
      <trkpt lat="43.701" lon="1.46671">
        <ele>198</ele>
        <time>2016-01-24T03:37:31Z</time>
      </trkpt>
      <trkpt lat="43.70101" lon="1.46669">
        <ele>197</ele>
        <time>2016-01-24T03:39:31Z</time>
      </trkpt>
      <trkpt lat="43.70101" lon="1.46667">
        <ele>197</ele>
        <time>2016-01-24T03:41:31Z</time>
      </trkpt>
      <trkpt lat="43.70103" lon="1.46664">
        <ele>197</ele>
        <time>2016-01-24T03:43:31Z</time>
      </trkpt>
      <trkpt lat="43.70104" lon="1.46662">
        <ele>197</ele>
        <time>2016-01-24T03:45:31Z</time>
      </trkpt>
      <trkpt lat="43.70106" lon="1.46661">
        <ele>197</ele>
        <time>2016-01-24T03:47:31Z</time>
      </trkpt>
      <trkpt lat="43.70108" lon="1.46661">
        <ele>198</ele>
        <time>2016-01-24T03:49:31Z</time>
      </trkpt>
      <trkpt lat="43.70114" lon="1.46647">
        <ele>197</ele>
        <time>2016-01-24T03:51:31Z</time>
      </trkpt>
      <trkpt lat="43.70122" lon="1.46627">
        <ele>197</ele>
        <time>2016-01-24T03:53:31Z</time>
      </trkpt>
      <trkpt lat="43.7013" lon="1.46606">
        <ele>196</ele>
        <time>2016-01-24T03:55:31Z</time>
      </trkpt>
      <trkpt lat="43.7015" lon="1.46559">
        <ele>196</ele>
        <time>2016-01-24T03:57:31Z</time>
      </trkpt>
      <trkpt lat="43.70164" lon="1.46535">
        <ele>195</ele>
        <time>2016-01-24T03:59:31Z</time>
      </trkpt>
      <trkpt lat="43.70174" lon="1.46522">
        <ele>195</ele>
        <time>2016-01-24T04:01:31Z</time>
      </trkpt>
      <trkpt lat="43.70216" lon="1.46457">
        <ele>193</ele>
        <time>2016-01-24T04:03:31Z</time>
      </trkpt>
      <trkpt lat="43.70216" lon="1.46457">
        <ele>193</ele>
        <time>2016-01-24T04:05:31Z</time>
      </trkpt>
      <trkpt lat="43.70209" lon="1.46448">
        <ele>193</ele>
        <time>2016-01-24T04:07:31Z</time>
      </trkpt>
      <trkpt lat="43.70193" lon="1.46433">
        <ele>193</ele>
        <time>2016-01-24T04:09:31Z</time>
      </trkpt>
      <trkpt lat="43.70177" lon="1.46415">
        <ele>193</ele>
        <time>2016-01-24T04:11:31Z</time>
      </trkpt>
      <trkpt lat="43.70147" lon="1.46388">
        <ele>195</ele>
        <time>2016-01-24T04:13:31Z</time>
      </trkpt>
      <trkpt lat="43.70113" lon="1.46356">
        <ele>196</ele>
        <time>2016-01-24T04:15:31Z</time>
      </trkpt>
      <trkpt lat="43.70091" lon="1.46341">
        <ele>197</ele>
        <time>2016-01-24T04:17:31Z</time>
      </trkpt>
      <trkpt lat="43.70065" lon="1.46326">
        <ele>197</ele>
        <time>2016-01-24T04:19:31Z</time>
      </trkpt>
      <trkpt lat="43.70043" lon="1.46317">
        <ele>198</ele>
        <time>2016-01-24T04:21:31Z</time>
      </trkpt>
      <trkpt lat="43.70024" lon="1.46309">
        <ele>198</ele>
        <time>2016-01-24T04:23:31Z</time>
      </trkpt>
      <trkpt lat="43.70021" lon="1.46308">
        <ele>198</ele>
        <time>2016-01-24T04:25:31Z</time>
      </trkpt>
      <trkpt lat="43.70016" lon="1.46305">
        <ele>198</ele>
        <time>2016-01-24T04:27:31Z</time>
      </trkpt>
      <trkpt lat="43.69975" lon="1.46282">
        <ele>201</ele>
        <time>2016-01-24T04:29:31Z</time>
      </trkpt>
      <trkpt lat="43.69968" lon="1.46277">
        <ele>201</ele>
        <time>2016-01-24T04:31:31Z</time>
      </trkpt>
      <trkpt lat="43.69958" lon="1.46269">
        <ele>202</ele>
        <time>2016-01-24T04:33:31Z</time>
      </trkpt>
      <trkpt lat="43.69929" lon="1.46239">
        <ele>204</ele>
        <time>2016-01-24T04:35:31Z</time>
      </trkpt>
      <trkpt lat="43.69905" lon="1.46211">
        <ele>203</ele>
        <time>2016-01-24T04:37:31Z</time>
      </trkpt>
      <trkpt lat="43.69905" lon="1.46211">
        <ele>203</ele>
        <time>2016-01-24T04:39:31Z</time>
      </trkpt>
      <trkpt lat="43.69853" lon="1.46318">
        <ele>198</ele>
        <time>2016-01-24T04:41:31Z</time>
      </trkpt>
      <trkpt lat="43.69835" lon="1.46355">
        <ele>197</ele>
        <time>2016-01-24T04:43:31Z</time>
      </trkpt>
      <trkpt lat="43.69835" lon="1.46355">
        <ele>197</ele>
        <time>2016-01-24T04:45:31Z</time>
      </trkpt>
      <trkpt lat="43.69844" lon="1.46365">
        <ele>197</ele>
        <time>2016-01-24T04:47:31Z</time>
      </trkpt>
      <trkpt lat="43.69847" lon="1.46369">
        <ele>198</ele>
        <time>2016-01-24T04:49:31Z</time>
      </trkpt>
      <trkpt lat="43.6985" lon="1.46374">
        <ele>198</ele>
        <time>2016-01-24T04:51:31Z</time>
      </trkpt>
      <trkpt lat="43.69852" lon="1.46377">
        <ele>198</ele>
        <time>2016-01-24T04:53:31Z</time>
      </trkpt>
      <trkpt lat="43.69853" lon="1.46382">
        <ele>198</ele>
        <time>2016-01-24T04:55:31Z</time>
      </trkpt>
      <trkpt lat="43.69854" lon="1.46387">
        <ele>198</ele>
        <time>2016-01-24T04:57:31Z</time>
      </trkpt>
      <trkpt lat="43.69855" lon="1.46395">
        <ele>198</ele>
        <time>2016-01-24T04:59:31Z</time>
      </trkpt>
      <trkpt lat="43.69855" lon="1.46395">
        <ele>198</ele>
        <time>2016-01-24T05:01:31Z</time>
      </trkpt>
      <trkpt lat="43.69858" lon="1.46394">
        <ele>198</ele>
        <time>2016-01-24T05:03:31Z</time>
      </trkpt>
      <trkpt lat="43.6986" lon="1.46394">
        <ele>198</ele>
        <time>2016-01-24T05:05:31Z</time>
      </trkpt>
      <trkpt lat="43.69862" lon="1.46395">
        <ele>199</ele>
        <time>2016-01-24T05:07:31Z</time>
      </trkpt>
      <trkpt lat="43.69864" lon="1.46396">
        <ele>199</ele>
        <time>2016-01-24T05:09:31Z</time>
      </trkpt>
      <trkpt lat="43.69865" lon="1.46397">
        <ele>199</ele>
        <time>2016-01-24T05:11:31Z</time>
      </trkpt>
      <trkpt lat="43.69866" lon="1.46399">
        <ele>199</ele>
        <time>2016-01-24T05:13:31Z</time>
      </trkpt>
      <trkpt lat="43.69866" lon="1.464">
        <ele>199</ele>
        <time>2016-01-24T05:15:31Z</time>
      </trkpt>
      <trkpt lat="43.69867" lon="1.46402">
        <ele>199</ele>
        <time>2016-01-24T05:17:31Z</time>
      </trkpt>
      <trkpt lat="43.69867" lon="1.46404">
        <ele>199</ele>
        <time>2016-01-24T05:19:31Z</time>
      </trkpt>
      <trkpt lat="43.69867" lon="1.46406">
        <ele>199</ele>
        <time>2016-01-24T05:21:31Z</time>
      </trkpt>
      <trkpt lat="43.69866" lon="1.46408">
        <ele>199</ele>
        <time>2016-01-24T05:23:31Z</time>
      </trkpt>
      <trkpt lat="43.69866" lon="1.4641">
        <ele>199</ele>
        <time>2016-01-24T05:25:31Z</time>
      </trkpt>
      <trkpt lat="43.69865" lon="1.46411">
        <ele>199</ele>
        <time>2016-01-24T05:27:31Z</time>
      </trkpt>
      <trkpt lat="43.69864" lon="1.46413">
        <ele>199</ele>
        <time>2016-01-24T05:29:31Z</time>
      </trkpt>
      <trkpt lat="43.69863" lon="1.46414">
        <ele>199</ele>
        <time>2016-01-24T05:31:31Z</time>
      </trkpt>
      <trkpt lat="43.69862" lon="1.46415">
        <ele>198</ele>
        <time>2016-01-24T05:33:31Z</time>
      </trkpt>
      <trkpt lat="43.6986" lon="1.46415">
        <ele>198</ele>
        <time>2016-01-24T05:35:31Z</time>
      </trkpt>
      <trkpt lat="43.69859" lon="1.46415">
        <ele>198</ele>
        <time>2016-01-24T05:37:31Z</time>
      </trkpt>
      <trkpt lat="43.69857" lon="1.46415">
        <ele>198</ele>
        <time>2016-01-24T05:39:31Z</time>
      </trkpt>
      <trkpt lat="43.69856" lon="1.46414">
        <ele>198</ele>
        <time>2016-01-24T05:41:31Z</time>
      </trkpt>
      <trkpt lat="43.69855" lon="1.46413">
        <ele>198</ele>
        <time>2016-01-24T05:43:31Z</time>
      </trkpt>
      <trkpt lat="43.69854" lon="1.46412">
        <ele>198</ele>
        <time>2016-01-24T05:45:31Z</time>
      </trkpt>
      <trkpt lat="43.69853" lon="1.46411">
        <ele>198</ele>
        <time>2016-01-24T05:47:31Z</time>
      </trkpt>
      <trkpt lat="43.69852" lon="1.4641">
        <ele>198</ele>
        <time>2016-01-24T05:49:31Z</time>
      </trkpt>
      <trkpt lat="43.69852" lon="1.46408">
        <ele>198</ele>
        <time>2016-01-24T05:51:31Z</time>
      </trkpt>
      <trkpt lat="43.69851" lon="1.46406">
        <ele>198</ele>
        <time>2016-01-24T05:53:31Z</time>
      </trkpt>
      <trkpt lat="43.69851" lon="1.46403">
        <ele>198</ele>
        <time>2016-01-24T05:55:31Z</time>
      </trkpt>
      <trkpt lat="43.69852" lon="1.46401">
        <ele>198</ele>
        <time>2016-01-24T05:57:31Z</time>
      </trkpt>
      <trkpt lat="43.69853" lon="1.46397">
        <ele>198</ele>
        <time>2016-01-24T05:59:31Z</time>
      </trkpt>
      <trkpt lat="43.69855" lon="1.46395">
        <ele>198</ele>
        <time>2016-01-24T06:01:31Z</time>
      </trkpt>
      <trkpt lat="43.69855" lon="1.46395">
        <ele>198</ele>
        <time>2016-01-24T06:03:31Z</time>
      </trkpt>
      <trkpt lat="43.69854" lon="1.46387">
        <ele>198</ele>
        <time>2016-01-24T06:05:31Z</time>
      </trkpt>
      <trkpt lat="43.69853" lon="1.46382">
        <ele>198</ele>
        <time>2016-01-24T06:07:31Z</time>
      </trkpt>
      <trkpt lat="43.69852" lon="1.46377">
        <ele>198</ele>
        <time>2016-01-24T06:09:31Z</time>
      </trkpt>
      <trkpt lat="43.6985" lon="1.46374">
        <ele>198</ele>
        <time>2016-01-24T06:11:31Z</time>
      </trkpt>
      <trkpt lat="43.69847" lon="1.46369">
        <ele>198</ele>
        <time>2016-01-24T06:13:31Z</time>
      </trkpt>
      <trkpt lat="43.69844" lon="1.46365">
        <ele>197</ele>
        <time>2016-01-24T06:15:31Z</time>
      </trkpt>
      <trkpt lat="43.69835" lon="1.46355">
        <ele>197</ele>
        <time>2016-01-24T06:17:31Z</time>
      </trkpt>
      <trkpt lat="43.69835" lon="1.46355">
        <ele>197</ele>
        <time>2016-01-24T06:19:31Z</time>
      </trkpt>
      <trkpt lat="43.69853" lon="1.46318">
        <ele>198</ele>
        <time>2016-01-24T06:21:31Z</time>
      </trkpt>
      <trkpt lat="43.69905" lon="1.46211">
        <ele>203</ele>
        <time>2016-01-24T06:23:31Z</time>
      </trkpt>
      <trkpt lat="43.69905" lon="1.46211">
        <ele>203</ele>
        <time>2016-01-24T06:25:31Z</time>
      </trkpt>
      <trkpt lat="43.69893" lon="1.46194">
        <ele>201</ele>
        <time>2016-01-24T06:27:31Z</time>
      </trkpt>
      <trkpt lat="43.69889" lon="1.46189">
        <ele>200</ele>
        <time>2016-01-24T06:29:31Z</time>
      </trkpt>
      <trkpt lat="43.69887" lon="1.46185">
        <ele>200</ele>
        <time>2016-01-24T06:31:31Z</time>
      </trkpt>
      <trkpt lat="43.69885" lon="1.46181">
        <ele>199</ele>
        <time>2016-01-24T06:33:31Z</time>
      </trkpt>
      <trkpt lat="43.69884" lon="1.46176">
        <ele>199</ele>
        <time>2016-01-24T06:35:31Z</time>
      </trkpt>
      <trkpt lat="43.69884" lon="1.4617">
        <ele>199</ele>
        <time>2016-01-24T06:37:31Z</time>
      </trkpt>
      <trkpt lat="43.69885" lon="1.46164">
        <ele>199</ele>
        <time>2016-01-24T06:39:31Z</time>
      </trkpt>
      <trkpt lat="43.69887" lon="1.46155">
        <ele>199</ele>
        <time>2016-01-24T06:41:31Z</time>
      </trkpt>
      <trkpt lat="43.69891" lon="1.4614">
        <ele>199</ele>
        <time>2016-01-24T06:43:31Z</time>
      </trkpt>
      <trkpt lat="43.69894" lon="1.46129">
        <ele>199</ele>
        <time>2016-01-24T06:45:31Z</time>
      </trkpt>
      <trkpt lat="43.69897" lon="1.46119">
        <ele>200</ele>
        <time>2016-01-24T06:47:31Z</time>
      </trkpt>
      <trkpt lat="43.69906" lon="1.46098">
        <ele>200</ele>
        <time>2016-01-24T06:49:31Z</time>
      </trkpt>
      <trkpt lat="43.69995" lon="1.45903">
        <ele>193</ele>
        <time>2016-01-24T06:51:31Z</time>
      </trkpt>
      <trkpt lat="43.70016" lon="1.45861">
        <ele>187</ele>
        <time>2016-01-24T06:53:31Z</time>
      </trkpt>
      <trkpt lat="43.70021" lon="1.45854">
        <ele>186</ele>
        <time>2016-01-24T06:55:31Z</time>
      </trkpt>
      <trkpt lat="43.70027" lon="1.45849">
        <ele>185</ele>
        <time>2016-01-24T06:57:31Z</time>
      </trkpt>
      <trkpt lat="43.70033" lon="1.45845">
        <ele>185</ele>
        <time>2016-01-24T06:59:31Z</time>
      </trkpt>
      <trkpt lat="43.70038" lon="1.45842">
        <ele>184</ele>
        <time>2016-01-24T07:01:31Z</time>
      </trkpt>
      <trkpt lat="43.70042" lon="1.45841">
        <ele>184</ele>
        <time>2016-01-24T07:03:31Z</time>
      </trkpt>
      <trkpt lat="43.70063" lon="1.45847">
        <ele>183</ele>
        <time>2016-01-24T07:05:31Z</time>
      </trkpt>
      <trkpt lat="43.70069" lon="1.4585">
        <ele>183</ele>
        <time>2016-01-24T07:07:31Z</time>
      </trkpt>
      <trkpt lat="43.70081" lon="1.45856">
        <ele>183</ele>
        <time>2016-01-24T07:09:31Z</time>
      </trkpt>
      <trkpt lat="43.70093" lon="1.45865">
        <ele>183</ele>
        <time>2016-01-24T07:11:31Z</time>
      </trkpt>
      <trkpt lat="43.701" lon="1.45873">
        <ele>183</ele>
        <time>2016-01-24T07:13:31Z</time>
      </trkpt>
      <trkpt lat="43.70108" lon="1.45884">
        <ele>183</ele>
        <time>2016-01-24T07:15:31Z</time>
      </trkpt>
      <trkpt lat="43.70125" lon="1.45907">
        <ele>183</ele>
        <time>2016-01-24T07:17:31Z</time>
      </trkpt>
      <trkpt lat="43.70152" lon="1.45943">
        <ele>181</ele>
        <time>2016-01-24T07:19:31Z</time>
      </trkpt>
      <trkpt lat="43.70175" lon="1.45976">
        <ele>180</ele>
        <time>2016-01-24T07:21:31Z</time>
      </trkpt>
      <trkpt lat="43.70211" lon="1.46032">
        <ele>180</ele>
        <time>2016-01-24T07:23:31Z</time>
      </trkpt>
      <trkpt lat="43.70219" lon="1.46041">
        <ele>180</ele>
        <time>2016-01-24T07:25:31Z</time>
      </trkpt>
      <trkpt lat="43.70221" lon="1.46044">
        <ele>180</ele>
        <time>2016-01-24T07:27:31Z</time>
      </trkpt>
      <trkpt lat="43.70224" lon="1.46046">
        <ele>180</ele>
        <time>2016-01-24T07:29:31Z</time>
      </trkpt>
      <trkpt lat="43.7023" lon="1.46048">
        <ele>180</ele>
        <time>2016-01-24T07:31:31Z</time>
      </trkpt>
      <trkpt lat="43.70234" lon="1.4605">
        <ele>180</ele>
        <time>2016-01-24T07:33:31Z</time>
      </trkpt>
      <trkpt lat="43.70244" lon="1.46051">
        <ele>179</ele>
        <time>2016-01-24T07:35:31Z</time>
      </trkpt>
      <trkpt lat="43.70251" lon="1.46052">
        <ele>179</ele>
        <time>2016-01-24T07:37:31Z</time>
      </trkpt>
      <trkpt lat="43.7026" lon="1.46051">
        <ele>180</ele>
        <time>2016-01-24T07:39:31Z</time>
      </trkpt>
      <trkpt lat="43.70271" lon="1.4605">
        <ele>181</ele>
        <time>2016-01-24T07:41:31Z</time>
      </trkpt>
      <trkpt lat="43.70278" lon="1.4605">
        <ele>181</ele>
        <time>2016-01-24T07:43:31Z</time>
      </trkpt>
      <trkpt lat="43.70278" lon="1.4605">
        <ele>181</ele>
        <time>2016-01-24T07:45:31Z</time>
      </trkpt>
      <trkpt lat="43.70296" lon="1.46191">
        <ele>185</ele>
        <time>2016-01-24T07:47:31Z</time>
      </trkpt>
      <trkpt lat="43.70297" lon="1.46209">
        <ele>186</ele>
        <time>2016-01-24T07:49:31Z</time>
      </trkpt>
      <trkpt lat="43.70298" lon="1.46225">
        <ele>187</ele>
        <time>2016-01-24T07:51:31Z</time>
      </trkpt>
      <trkpt lat="43.70298" lon="1.4624">
        <ele>188</ele>
        <time>2016-01-24T07:53:31Z</time>
      </trkpt>
      <trkpt lat="43.70297" lon="1.46253">
        <ele>189</ele>
        <time>2016-01-24T07:55:31Z</time>
      </trkpt>
      <trkpt lat="43.70295" lon="1.46267">
        <ele>189</ele>
        <time>2016-01-24T07:57:31Z</time>
      </trkpt>
      <trkpt lat="43.70292" lon="1.46282">
        <ele>189</ele>
        <time>2016-01-24T07:59:31Z</time>
      </trkpt>
      <trkpt lat="43.70284" lon="1.4631">
        <ele>189</ele>
        <time>2016-01-24T08:01:31Z</time>
      </trkpt>
      <trkpt lat="43.70273" lon="1.46338">
        <ele>188</ele>
        <time>2016-01-24T08:03:31Z</time>
      </trkpt>
      <trkpt lat="43.70267" lon="1.46355">
        <ele>188</ele>
        <time>2016-01-24T08:05:31Z</time>
      </trkpt>
      <trkpt lat="43.70258" lon="1.46375">
        <ele>189</ele>
        <time>2016-01-24T08:07:31Z</time>
      </trkpt>
      <trkpt lat="43.70245" lon="1.46402">
        <ele>189</ele>
        <time>2016-01-24T08:09:31Z</time>
      </trkpt>
      <trkpt lat="43.70226" lon="1.4644">
        <ele>192</ele>
        <time>2016-01-24T08:11:31Z</time>
      </trkpt>
      <trkpt lat="43.70216" lon="1.46457">
        <ele>193</ele>
        <time>2016-01-24T08:13:31Z</time>
      </trkpt>
      <trkpt lat="43.70174" lon="1.46522">
        <ele>195</ele>
        <time>2016-01-24T08:15:31Z</time>
      </trkpt>
      <trkpt lat="43.70174" lon="1.46522">
        <ele>195</ele>
        <time>2016-01-24T08:17:31Z</time>
      </trkpt>
      <trkpt lat="43.70181" lon="1.46531">
        <ele>195</ele>
        <time>2016-01-24T08:19:31Z</time>
      </trkpt>
      <trkpt lat="43.70234" lon="1.46602">
        <ele>199</ele>
        <time>2016-01-24T08:21:31Z</time>
      </trkpt>
      <trkpt lat="43.70257" lon="1.46636">
        <ele>202</ele>
        <time>2016-01-24T08:23:31Z</time>
      </trkpt>
      <trkpt lat="43.7027" lon="1.46656">
        <ele>204</ele>
        <time>2016-01-24T08:25:31Z</time>
      </trkpt>
      <trkpt lat="43.70272" lon="1.46664">
        <ele>204</ele>
        <time>2016-01-24T08:27:31Z</time>
      </trkpt>
      <trkpt lat="43.70272" lon="1.46664">
        <ele>204</ele>
        <time>2016-01-24T08:29:31Z</time>
      </trkpt>
      <trkpt lat="43.70275" lon="1.46669">
        <ele>205</ele>
        <time>2016-01-24T08:31:31Z</time>
      </trkpt>
      <trkpt lat="43.70276" lon="1.46673">
        <ele>205</ele>
        <time>2016-01-24T08:33:31Z</time>
      </trkpt>
      <trkpt lat="43.70281" lon="1.46684">
        <ele>205</ele>
        <time>2016-01-24T08:35:31Z</time>
      </trkpt>
      <trkpt lat="43.70283" lon="1.46688">
        <ele>205</ele>
        <time>2016-01-24T08:37:31Z</time>
      </trkpt>
      <trkpt lat="43.70285" lon="1.46691">
        <ele>205</ele>
        <time>2016-01-24T08:39:31Z</time>
      </trkpt>
      <trkpt lat="43.70287" lon="1.46692">
        <ele>206</ele>
        <time>2016-01-24T08:41:31Z</time>
      </trkpt>
      <trkpt lat="43.70287" lon="1.46692">
        <ele>206</ele>
        <time>2016-01-24T08:43:31Z</time>
      </trkpt>
      <trkpt lat="43.70289" lon="1.46692">
        <ele>206</ele>
        <time>2016-01-24T08:45:31Z</time>
      </trkpt>
      <trkpt lat="43.70292" lon="1.46692">
        <ele>206</ele>
        <time>2016-01-24T08:47:31Z</time>
      </trkpt>
      <trkpt lat="43.70304" lon="1.4668">
        <ele>206</ele>
        <time>2016-01-24T08:49:31Z</time>
      </trkpt>
      <trkpt lat="43.70306" lon="1.46678">
        <ele>206</ele>
        <time>2016-01-24T08:51:31Z</time>
      </trkpt>
      <trkpt lat="43.70307" lon="1.46678">
        <ele>206</ele>
        <time>2016-01-24T08:53:31Z</time>
      </trkpt>
      <trkpt lat="43.70309" lon="1.46679">
        <ele>206</ele>
        <time>2016-01-24T08:55:31Z</time>
      </trkpt>
      <trkpt lat="43.7031" lon="1.4668">
        <ele>206</ele>
        <time>2016-01-24T08:57:31Z</time>
      </trkpt>
      <trkpt lat="43.70312" lon="1.46684">
        <ele>206</ele>
        <time>2016-01-24T08:59:31Z</time>
      </trkpt>
      <trkpt lat="43.70316" lon="1.4669">
        <ele>206</ele>
        <time>2016-01-24T09:01:31Z</time>
      </trkpt>
      <trkpt lat="43.70316" lon="1.4669">
        <ele>206</ele>
        <time>2016-01-24T09:03:31Z</time>
      </trkpt>
      <trkpt lat="43.70319" lon="1.46688">
        <ele>206</ele>
        <time>2016-01-24T09:05:31Z</time>
      </trkpt>
      <trkpt lat="43.70349" lon="1.46666">
        <ele>206</ele>
        <time>2016-01-24T09:07:31Z</time>
      </trkpt>
      <trkpt lat="43.70354" lon="1.46662">
        <ele>206</ele>
        <time>2016-01-24T09:09:31Z</time>
      </trkpt>
      <trkpt lat="43.70371" lon="1.46649">
        <ele>206</ele>
        <time>2016-01-24T09:11:31Z</time>
      </trkpt>
      <trkpt lat="43.70371" lon="1.46649">
        <ele>206</ele>
        <time>2016-01-24T09:13:31Z</time>
      </trkpt>
      <trkpt lat="43.70371" lon="1.46647">
        <ele>206</ele>
        <time>2016-01-24T09:15:31Z</time>
      </trkpt>
      <trkpt lat="43.70372" lon="1.46643">
        <ele>206</ele>
        <time>2016-01-24T09:17:31Z</time>
      </trkpt>
      <trkpt lat="43.70374" lon="1.46638">
        <ele>206</ele>
        <time>2016-01-24T09:19:31Z</time>
      </trkpt>
      <trkpt lat="43.70377" lon="1.46635">
        <ele>206</ele>
        <time>2016-01-24T09:21:31Z</time>
      </trkpt>
      <trkpt lat="43.70378" lon="1.46635">
        <ele>206</ele>
        <time>2016-01-24T09:23:31Z</time>
      </trkpt>
      <trkpt lat="43.70379" lon="1.46634">
        <ele>206</ele>
        <time>2016-01-24T09:25:31Z</time>
      </trkpt>
      <trkpt lat="43.70379" lon="1.46629">
        <ele>206</ele>
        <time>2016-01-24T09:27:31Z</time>
      </trkpt>
      <trkpt lat="43.70378" lon="1.4662">
        <ele>205</ele>
        <time>2016-01-24T09:29:31Z</time>
      </trkpt>
      <trkpt lat="43.70378" lon="1.46613">
        <ele>205</ele>
        <time>2016-01-24T09:31:31Z</time>
      </trkpt>
      <trkpt lat="43.70378" lon="1.46608">
        <ele>205</ele>
        <time>2016-01-24T09:33:31Z</time>
      </trkpt>
      <trkpt lat="43.70378" lon="1.46603">
        <ele>205</ele>
        <time>2016-01-24T09:35:31Z</time>
      </trkpt>
      <trkpt lat="43.70378" lon="1.46598">
        <ele>205</ele>
        <time>2016-01-24T09:37:31Z</time>
      </trkpt>
      <trkpt lat="43.70378" lon="1.46588">
        <ele>205</ele>
        <time>2016-01-24T09:39:31Z</time>
      </trkpt>
      <trkpt lat="43.70385" lon="1.46557">
        <ele>205</ele>
        <time>2016-01-24T09:41:31Z</time>
      </trkpt>
      <trkpt lat="43.70388" lon="1.46545">
        <ele>204</ele>
        <time>2016-01-24T09:43:31Z</time>
      </trkpt>
      <trkpt lat="43.7039" lon="1.46537">
        <ele>204</ele>
        <time>2016-01-24T09:45:31Z</time>
      </trkpt>
      <trkpt lat="43.70391" lon="1.46531">
        <ele>204</ele>
        <time>2016-01-24T09:47:31Z</time>
      </trkpt>
      <trkpt lat="43.70392" lon="1.46525">
        <ele>204</ele>
        <time>2016-01-24T09:49:31Z</time>
      </trkpt>
      <trkpt lat="43.70405" lon="1.46471">
        <ele>204</ele>
        <time>2016-01-24T09:51:31Z</time>
      </trkpt>
      <trkpt lat="43.70418" lon="1.46424">
        <ele>204</ele>
        <time>2016-01-24T09:53:31Z</time>
      </trkpt>
      <trkpt lat="43.70435" lon="1.46358">
        <ele>203</ele>
        <time>2016-01-24T09:55:31Z</time>
      </trkpt>
      <trkpt lat="43.70435" lon="1.46358">
        <ele>203</ele>
        <time>2016-01-24T09:57:31Z</time>
      </trkpt>
      <trkpt lat="43.70438" lon="1.46348">
        <ele>203</ele>
        <time>2016-01-24T09:59:31Z</time>
      </trkpt>
      <trkpt lat="43.70448" lon="1.4631">
        <ele>202</ele>
        <time>2016-01-24T10:01:31Z</time>
      </trkpt>
      <trkpt lat="43.70461" lon="1.46264">
        <ele>201</ele>
        <time>2016-01-24T10:03:31Z</time>
      </trkpt>
      <trkpt lat="43.70495" lon="1.46134">
        <ele>204</ele>
        <time>2016-01-24T10:05:31Z</time>
      </trkpt>
      <trkpt lat="43.70511" lon="1.46079">
        <ele>205</ele>
        <time>2016-01-24T10:07:31Z</time>
      </trkpt>
      <trkpt lat="43.70512" lon="1.46069">
        <ele>205</ele>
        <time>2016-01-24T10:09:31Z</time>
      </trkpt>
      <trkpt lat="43.70513" lon="1.46062">
        <ele>206</ele>
        <time>2016-01-24T10:11:31Z</time>
      </trkpt>
      <trkpt lat="43.70513" lon="1.46054">
        <ele>206</ele>
        <time>2016-01-24T10:13:31Z</time>
      </trkpt>
      <trkpt lat="43.70512" lon="1.46049">
        <ele>206</ele>
        <time>2016-01-24T10:15:31Z</time>
      </trkpt>
      <trkpt lat="43.70511" lon="1.46044">
        <ele>206</ele>
        <time>2016-01-24T10:17:31Z</time>
      </trkpt>
      <trkpt lat="43.70509" lon="1.46036">
        <ele>206</ele>
        <time>2016-01-24T10:19:31Z</time>
      </trkpt>
      <trkpt lat="43.70507" lon="1.46029">
        <ele>207</ele>
        <time>2016-01-24T10:21:31Z</time>
      </trkpt>
      <trkpt lat="43.70505" lon="1.46023">
        <ele>207</ele>
        <time>2016-01-24T10:23:31Z</time>
      </trkpt>
      <trkpt lat="43.70504" lon="1.46014">
        <ele>207</ele>
        <time>2016-01-24T10:25:31Z</time>
      </trkpt>
      <trkpt lat="43.70504" lon="1.46014">
        <ele>207</ele>
        <time>2016-01-24T10:27:31Z</time>
      </trkpt>
      <trkpt lat="43.70504" lon="1.46009">
        <ele>208</ele>
        <time>2016-01-24T10:29:31Z</time>
      </trkpt>
      <trkpt lat="43.70506" lon="1.46002">
        <ele>208</ele>
        <time>2016-01-24T10:31:31Z</time>
      </trkpt>
      <trkpt lat="43.70507" lon="1.46">
        <ele>208</ele>
        <time>2016-01-24T10:33:31Z</time>
      </trkpt>
      <trkpt lat="43.70508" lon="1.45998">
        <ele>208</ele>
        <time>2016-01-24T10:35:31Z</time>
      </trkpt>
      <trkpt lat="43.70508" lon="1.45996">
        <ele>208</ele>
        <time>2016-01-24T10:37:31Z</time>
      </trkpt>
      <trkpt lat="43.70508" lon="1.45994">
        <ele>208</ele>
        <time>2016-01-24T10:39:31Z</time>
      </trkpt>
      <trkpt lat="43.70507" lon="1.45992">
        <ele>208</ele>
        <time>2016-01-24T10:41:31Z</time>
      </trkpt>
      <trkpt lat="43.70508" lon="1.45986">
        <ele>207</ele>
        <time>2016-01-24T10:43:31Z</time>
      </trkpt>
      <trkpt lat="43.70508" lon="1.45982">
        <ele>207</ele>
        <time>2016-01-24T10:45:31Z</time>
      </trkpt>
      <trkpt lat="43.70508" lon="1.45978">
        <ele>207</ele>
        <time>2016-01-24T10:47:31Z</time>
      </trkpt>
      <trkpt lat="43.70518" lon="1.45954">
        <ele>207</ele>
        <time>2016-01-24T10:49:31Z</time>
      </trkpt>
      <trkpt lat="43.70546" lon="1.45893">
        <ele>206</ele>
        <time>2016-01-24T10:51:31Z</time>
      </trkpt>
      <trkpt lat="43.70551" lon="1.45886">
        <ele>206</ele>
        <time>2016-01-24T10:53:31Z</time>
      </trkpt>
      <trkpt lat="43.70556" lon="1.45879">
        <ele>206</ele>
        <time>2016-01-24T10:55:31Z</time>
      </trkpt>
      <trkpt lat="43.70557" lon="1.45878">
        <ele>206</ele>
        <time>2016-01-24T10:57:31Z</time>
      </trkpt>
      <trkpt lat="43.70559" lon="1.45877">
        <ele>206</ele>
        <time>2016-01-24T10:59:31Z</time>
      </trkpt>
      <trkpt lat="43.7056" lon="1.45876">
        <ele>206</ele>
        <time>2016-01-24T11:01:31Z</time>
      </trkpt>
      <trkpt lat="43.70561" lon="1.45875">
        <ele>206</ele>
        <time>2016-01-24T11:03:31Z</time>
      </trkpt>
      <trkpt lat="43.70566" lon="1.45874">
        <ele>206</ele>
        <time>2016-01-24T11:05:31Z</time>
      </trkpt>
      <trkpt lat="43.70571" lon="1.45874">
        <ele>206</ele>
        <time>2016-01-24T11:07:31Z</time>
      </trkpt>
      <trkpt lat="43.70591" lon="1.45884">
        <ele>205</ele>
        <time>2016-01-24T11:09:31Z</time>
      </trkpt>
      <trkpt lat="43.70635" lon="1.45904">
        <ele>205</ele>
        <time>2016-01-24T11:11:31Z</time>
      </trkpt>
      <trkpt lat="43.70641" lon="1.45906">
        <ele>204</ele>
        <time>2016-01-24T11:13:31Z</time>
      </trkpt>
      <trkpt lat="43.70653" lon="1.45911">
        <ele>204</ele>
        <time>2016-01-24T11:15:31Z</time>
      </trkpt>
      <trkpt lat="43.70665" lon="1.45919">
        <ele>204</ele>
        <time>2016-01-24T11:17:31Z</time>
      </trkpt>
      <trkpt lat="43.7067" lon="1.45923">
        <ele>204</ele>
        <time>2016-01-24T11:19:31Z</time>
      </trkpt>
      <trkpt lat="43.70714" lon="1.4595">
        <ele>203</ele>
        <time>2016-01-24T11:21:31Z</time>
      </trkpt>
      <trkpt lat="43.70726" lon="1.45958">
        <ele>203</ele>
        <time>2016-01-24T11:23:31Z</time>
      </trkpt>
      <trkpt lat="43.7075" lon="1.4597">
        <ele>203</ele>
        <time>2016-01-24T11:25:31Z</time>
      </trkpt>
      <trkpt lat="43.70757" lon="1.45973">
        <ele>203</ele>
        <time>2016-01-24T11:27:31Z</time>
      </trkpt>
      <trkpt lat="43.70812" lon="1.4599">
        <ele>204</ele>
        <time>2016-01-24T11:29:31Z</time>
      </trkpt>
      <trkpt lat="43.70841" lon="1.45996">
        <ele>204</ele>
        <time>2016-01-24T11:31:31Z</time>
      </trkpt>
      <trkpt lat="43.70844" lon="1.45996">
        <ele>204</ele>
        <time>2016-01-24T11:33:31Z</time>
      </trkpt>
      <trkpt lat="43.70855" lon="1.45999">
        <ele>203</ele>
        <time>2016-01-24T11:35:31Z</time>
      </trkpt>
      <trkpt lat="43.70861" lon="1.45999">
        <ele>203</ele>
        <time>2016-01-24T11:37:31Z</time>
      </trkpt>
      <trkpt lat="43.7087" lon="1.45998">
        <ele>203</ele>
        <time>2016-01-24T11:39:31Z</time>
      </trkpt>
      <trkpt lat="43.70872" lon="1.45997">
        <ele>203</ele>
        <time>2016-01-24T11:41:31Z</time>
      </trkpt>
      <trkpt lat="43.70873" lon="1.45997">
        <ele>203</ele>
        <time>2016-01-24T11:43:31Z</time>
      </trkpt>
      <trkpt lat="43.70874" lon="1.45995">
        <ele>203</ele>
        <time>2016-01-24T11:45:31Z</time>
      </trkpt>
      <trkpt lat="43.70876" lon="1.45993">
        <ele>202</ele>
        <time>2016-01-24T11:47:31Z</time>
      </trkpt>
      <trkpt lat="43.70877" lon="1.45992">
        <ele>202</ele>
        <time>2016-01-24T11:49:31Z</time>
      </trkpt>
      <trkpt lat="43.70907" lon="1.45922">
        <ele>201</ele>
        <time>2016-01-24T11:51:31Z</time>
      </trkpt>
      <trkpt lat="43.70911" lon="1.45913">
        <ele>201</ele>
        <time>2016-01-24T11:53:31Z</time>
      </trkpt>
      <trkpt lat="43.70914" lon="1.45904">
        <ele>201</ele>
        <time>2016-01-24T11:55:31Z</time>
      </trkpt>
      <trkpt lat="43.70916" lon="1.45896">
        <ele>201</ele>
        <time>2016-01-24T11:57:31Z</time>
      </trkpt>
      <trkpt lat="43.70918" lon="1.45889">
        <ele>201</ele>
        <time>2016-01-24T11:59:31Z</time>
      </trkpt>
      <trkpt lat="43.70919" lon="1.45881">
        <ele>200</ele>
        <time>2016-01-24T12:01:31Z</time>
      </trkpt>
      <trkpt lat="43.7092" lon="1.45872">
        <ele>200</ele>
        <time>2016-01-24T12:03:31Z</time>
      </trkpt>
      <trkpt lat="43.70921" lon="1.45858">
        <ele>200</ele>
        <time>2016-01-24T12:05:31Z</time>
      </trkpt>
      <trkpt lat="43.70921" lon="1.45856">
        <ele>200</ele>
        <time>2016-01-24T12:07:31Z</time>
      </trkpt>
      <trkpt lat="43.70921" lon="1.45856">
        <ele>200</ele>
        <time>2016-01-24T12:09:31Z</time>
      </trkpt>
      <trkpt lat="43.70921" lon="1.4585">
        <ele>200</ele>
        <time>2016-01-24T12:11:31Z</time>
      </trkpt>
      <trkpt lat="43.7092" lon="1.45846">
        <ele>200</ele>
        <time>2016-01-24T12:13:31Z</time>
      </trkpt>
      <trkpt lat="43.70922" lon="1.45829">
        <ele>200</ele>
        <time>2016-01-24T12:15:31Z</time>
      </trkpt>
      <trkpt lat="43.70923" lon="1.45819">
        <ele>200</ele>
        <time>2016-01-24T12:17:31Z</time>
      </trkpt>
      <trkpt lat="43.70924" lon="1.45809">
        <ele>200</ele>
        <time>2016-01-24T12:19:31Z</time>
      </trkpt>
      <trkpt lat="43.70945" lon="1.45715">
        <ele>201</ele>
        <time>2016-01-24T12:21:31Z</time>
      </trkpt>
      <trkpt lat="43.70967" lon="1.45616">
        <ele>200</ele>
        <time>2016-01-24T12:23:31Z</time>
      </trkpt>
      <trkpt lat="43.70982" lon="1.4555">
        <ele>198</ele>
        <time>2016-01-24T12:25:31Z</time>
      </trkpt>
      <trkpt lat="43.70989" lon="1.45529">
        <ele>197</ele>
        <time>2016-01-24T12:27:31Z</time>
      </trkpt>
      <trkpt lat="43.71001" lon="1.45492">
        <ele>197</ele>
        <time>2016-01-24T12:29:31Z</time>
      </trkpt>
      <trkpt lat="43.71024" lon="1.45408">
        <ele>194</ele>
        <time>2016-01-24T12:31:31Z</time>
      </trkpt>
      <trkpt lat="43.71039" lon="1.45361">
        <ele>194</ele>
        <time>2016-01-24T12:33:31Z</time>
      </trkpt>
      <trkpt lat="43.71053" lon="1.45307">
        <ele>193</ele>
        <time>2016-01-24T12:35:31Z</time>
      </trkpt>
      <trkpt lat="43.71059" lon="1.45285">
        <ele>193</ele>
        <time>2016-01-24T12:37:31Z</time>
      </trkpt>
      <trkpt lat="43.7107" lon="1.45238">
        <ele>192</ele>
        <time>2016-01-24T12:39:31Z</time>
      </trkpt>
      <trkpt lat="43.71072" lon="1.4523">
        <ele>192</ele>
        <time>2016-01-24T12:41:31Z</time>
      </trkpt>
      <trkpt lat="43.71081" lon="1.45177">
        <ele>192</ele>
        <time>2016-01-24T12:43:31Z</time>
      </trkpt>
      <trkpt lat="43.71088" lon="1.45132">
        <ele>192</ele>
        <time>2016-01-24T12:45:31Z</time>
      </trkpt>
      <trkpt lat="43.71089" lon="1.45107">
        <ele>191</ele>
        <time>2016-01-24T12:47:31Z</time>
      </trkpt>
      <trkpt lat="43.71086" lon="1.45026">
        <ele>190</ele>
        <time>2016-01-24T12:49:31Z</time>
      </trkpt>
      <trkpt lat="43.71087" lon="1.45">
        <ele>190</ele>
        <time>2016-01-24T12:51:31Z</time>
      </trkpt>
      <trkpt lat="43.71088" lon="1.44976">
        <ele>191</ele>
        <time>2016-01-24T12:53:31Z</time>
      </trkpt>
      <trkpt lat="43.71091" lon="1.44947">
        <ele>192</ele>
        <time>2016-01-24T12:55:31Z</time>
      </trkpt>
      <trkpt lat="43.71104" lon="1.44875">
        <ele>193</ele>
        <time>2016-01-24T12:57:31Z</time>
      </trkpt>
      <trkpt lat="43.71112" lon="1.44844">
        <ele>193</ele>
        <time>2016-01-24T12:59:31Z</time>
      </trkpt>
      <trkpt lat="43.71115" lon="1.44832">
        <ele>194</ele>
        <time>2016-01-24T13:01:31Z</time>
      </trkpt>
      <trkpt lat="43.71122" lon="1.4481">
        <ele>194</ele>
        <time>2016-01-24T13:03:31Z</time>
      </trkpt>
      <trkpt lat="43.71131" lon="1.44786">
        <ele>194</ele>
        <time>2016-01-24T13:05:31Z</time>
      </trkpt>
      <trkpt lat="43.71138" lon="1.44764">
        <ele>195</ele>
        <time>2016-01-24T13:07:31Z</time>
      </trkpt>
      <trkpt lat="43.71164" lon="1.44702">
        <ele>195</ele>
        <time>2016-01-24T13:09:31Z</time>
      </trkpt>
      <trkpt lat="43.71164" lon="1.44702">
        <ele>195</ele>
        <time>2016-01-24T13:11:31Z</time>
      </trkpt>
      <trkpt lat="43.71208" lon="1.44737">
        <ele>198</ele>
        <time>2016-01-24T13:13:31Z</time>
      </trkpt>
      <trkpt lat="43.71248" lon="1.44771">
        <ele>198</ele>
        <time>2016-01-24T13:15:31Z</time>
      </trkpt>
      <trkpt lat="43.71291" lon="1.44809">
        <ele>194</ele>
        <time>2016-01-24T13:17:31Z</time>
      </trkpt>
      <trkpt lat="43.71332" lon="1.44841">
        <ele>191</ele>
        <time>2016-01-24T13:19:31Z</time>
      </trkpt>
      <trkpt lat="43.7137" lon="1.44872">
        <ele>189</ele>
        <time>2016-01-24T13:21:31Z</time>
      </trkpt>
      <trkpt lat="43.71413" lon="1.449">
        <ele>187</ele>
        <time>2016-01-24T13:23:31Z</time>
      </trkpt>
      <trkpt lat="43.71432" lon="1.44914">
        <ele>187</ele>
        <time>2016-01-24T13:25:31Z</time>
      </trkpt>
      <trkpt lat="43.71434" lon="1.44916">
        <ele>187</ele>
        <time>2016-01-24T13:27:31Z</time>
      </trkpt>
      <trkpt lat="43.71435" lon="1.44917">
        <ele>187</ele>
        <time>2016-01-24T13:29:31Z</time>
      </trkpt>
      <trkpt lat="43.71436" lon="1.4492">
        <ele>187</ele>
        <time>2016-01-24T13:31:31Z</time>
      </trkpt>
      <trkpt lat="43.71437" lon="1.44923">
        <ele>187</ele>
        <time>2016-01-24T13:33:31Z</time>
      </trkpt>
      <trkpt lat="43.71438" lon="1.4493">
        <ele>187</ele>
        <time>2016-01-24T13:35:31Z</time>
      </trkpt>
      <trkpt lat="43.71439" lon="1.44935">
        <ele>187</ele>
        <time>2016-01-24T13:37:31Z</time>
      </trkpt>
      <trkpt lat="43.71443" lon="1.44966">
        <ele>186</ele>
        <time>2016-01-24T13:39:31Z</time>
      </trkpt>
      <trkpt lat="43.71453" lon="1.45034">
        <ele>187</ele>
        <time>2016-01-24T13:41:31Z</time>
      </trkpt>
      <trkpt lat="43.71455" lon="1.45034">
        <ele>187</ele>
        <time>2016-01-24T13:43:31Z</time>
      </trkpt>
      <trkpt lat="43.71455" lon="1.45035">
        <ele>187</ele>
        <time>2016-01-24T13:45:31Z</time>
      </trkpt>
      <trkpt lat="43.71456" lon="1.45035">
        <ele>187</ele>
        <time>2016-01-24T13:47:31Z</time>
      </trkpt>
      <trkpt lat="43.71482" lon="1.45055">
        <ele>187</ele>
        <time>2016-01-24T13:49:31Z</time>
      </trkpt>
      <trkpt lat="43.71531" lon="1.45099">
        <ele>187</ele>
        <time>2016-01-24T13:51:31Z</time>
      </trkpt>
      <trkpt lat="43.7154" lon="1.45107">
        <ele>186</ele>
        <time>2016-01-24T13:53:31Z</time>
      </trkpt>
      <trkpt lat="43.7154" lon="1.45107">
        <ele>186</ele>
        <time>2016-01-24T13:55:31Z</time>
      </trkpt>
      <trkpt lat="43.71573" lon="1.45134">
        <ele>184</ele>
        <time>2016-01-24T13:57:31Z</time>
      </trkpt>
      <trkpt lat="43.71606" lon="1.45162">
        <ele>183</ele>
        <time>2016-01-24T13:59:31Z</time>
      </trkpt>
      <trkpt lat="43.71606" lon="1.45162">
        <ele>183</ele>
        <time>2016-01-24T14:01:31Z</time>
      </trkpt>
      <trkpt lat="43.71594" lon="1.45189">
        <ele>183</ele>
        <time>2016-01-24T14:03:31Z</time>
      </trkpt>
      <trkpt lat="43.71568" lon="1.4524">
        <ele>183</ele>
        <time>2016-01-24T14:05:31Z</time>
      </trkpt>
      <trkpt lat="43.71565" lon="1.45246">
        <ele>183</ele>
        <time>2016-01-24T14:07:31Z</time>
      </trkpt>
      <trkpt lat="43.71564" lon="1.4525">
        <ele>183</ele>
        <time>2016-01-24T14:09:31Z</time>
      </trkpt>
      <trkpt lat="43.7154" lon="1.453">
        <ele>184</ele>
        <time>2016-01-24T14:11:31Z</time>
      </trkpt>
      <trkpt lat="43.71522" lon="1.45339">
        <ele>184</ele>
        <time>2016-01-24T14:13:31Z</time>
      </trkpt>
      <trkpt lat="43.71512" lon="1.45367">
        <ele>185</ele>
        <time>2016-01-24T14:15:31Z</time>
      </trkpt>
      <trkpt lat="43.71501" lon="1.45403">
        <ele>185</ele>
        <time>2016-01-24T14:17:31Z</time>
      </trkpt>
      <trkpt lat="43.71501" lon="1.45405">
        <ele>185</ele>
        <time>2016-01-24T14:19:31Z</time>
      </trkpt>
      <trkpt lat="43.71485" lon="1.45464">
        <ele>184</ele>
        <time>2016-01-24T14:21:31Z</time>
      </trkpt>
      <trkpt lat="43.71477" lon="1.45494">
        <ele>183</ele>
        <time>2016-01-24T14:23:31Z</time>
      </trkpt>
      <trkpt lat="43.71467" lon="1.45531">
        <ele>183</ele>
        <time>2016-01-24T14:25:31Z</time>
      </trkpt>
      <trkpt lat="43.71461" lon="1.45555">
        <ele>183</ele>
        <time>2016-01-24T14:27:31Z</time>
      </trkpt>
      <trkpt lat="43.71459" lon="1.45562">
        <ele>183</ele>
        <time>2016-01-24T14:29:31Z</time>
      </trkpt>
      <trkpt lat="43.7145" lon="1.45588">
        <ele>183</ele>
        <time>2016-01-24T14:31:31Z</time>
      </trkpt>
      <trkpt lat="43.71442" lon="1.45605">
        <ele>183</ele>
        <time>2016-01-24T14:33:31Z</time>
      </trkpt>
      <trkpt lat="43.71436" lon="1.45615">
        <ele>183</ele>
        <time>2016-01-24T14:35:31Z</time>
      </trkpt>
      <trkpt lat="43.71429" lon="1.45627">
        <ele>183</ele>
        <time>2016-01-24T14:37:31Z</time>
      </trkpt>
      <trkpt lat="43.71426" lon="1.45631">
        <ele>183</ele>
        <time>2016-01-24T14:39:31Z</time>
      </trkpt>
      <trkpt lat="43.71402" lon="1.45664">
        <ele>184</ele>
        <time>2016-01-24T14:41:31Z</time>
      </trkpt>
      <trkpt lat="43.71395" lon="1.45672">
        <ele>184</ele>
        <time>2016-01-24T14:43:31Z</time>
      </trkpt>
      <trkpt lat="43.71391" lon="1.45677">
        <ele>184</ele>
        <time>2016-01-24T14:45:31Z</time>
      </trkpt>
      <trkpt lat="43.7138" lon="1.45693">
        <ele>184</ele>
        <time>2016-01-24T14:47:31Z</time>
      </trkpt>
      <trkpt lat="43.71361" lon="1.45722">
        <ele>184</ele>
        <time>2016-01-24T14:49:31Z</time>
      </trkpt>
      <trkpt lat="43.71324" lon="1.45791">
        <ele>185</ele>
        <time>2016-01-24T14:51:31Z</time>
      </trkpt>
      <trkpt lat="43.71289" lon="1.45859">
        <ele>187</ele>
        <time>2016-01-24T14:53:31Z</time>
      </trkpt>
      <trkpt lat="43.71274" lon="1.45888">
        <ele>187</ele>
        <time>2016-01-24T14:55:31Z</time>
      </trkpt>
      <trkpt lat="43.71271" lon="1.45894">
        <ele>187</ele>
        <time>2016-01-24T14:57:31Z</time>
      </trkpt>
      <trkpt lat="43.71269" lon="1.45899">
        <ele>187</ele>
        <time>2016-01-24T14:59:31Z</time>
      </trkpt>
      <trkpt lat="43.71258" lon="1.45931">
        <ele>188</ele>
        <time>2016-01-24T15:01:31Z</time>
      </trkpt>
      <trkpt lat="43.71252" lon="1.45951">
        <ele>188</ele>
        <time>2016-01-24T15:03:31Z</time>
      </trkpt>
      <trkpt lat="43.71228" lon="1.46022">
        <ele>187</ele>
        <time>2016-01-24T15:05:31Z</time>
      </trkpt>
      <trkpt lat="43.71223" lon="1.46039">
        <ele>187</ele>
        <time>2016-01-24T15:07:31Z</time>
      </trkpt>
      <trkpt lat="43.71187" lon="1.46159">
        <ele>187</ele>
        <time>2016-01-24T15:09:31Z</time>
      </trkpt>
      <trkpt lat="43.71181" lon="1.46173">
        <ele>187</ele>
        <time>2016-01-24T15:11:31Z</time>
      </trkpt>
      <trkpt lat="43.71176" lon="1.46183">
        <ele>188</ele>
        <time>2016-01-24T15:13:31Z</time>
      </trkpt>
      <trkpt lat="43.71162" lon="1.46205">
        <ele>188</ele>
        <time>2016-01-24T15:15:31Z</time>
      </trkpt>
      <trkpt lat="43.71113" lon="1.46259">
        <ele>189</ele>
        <time>2016-01-24T15:17:31Z</time>
      </trkpt>
      <trkpt lat="43.71109" lon="1.46264">
        <ele>189</ele>
        <time>2016-01-24T15:19:31Z</time>
      </trkpt>
      <trkpt lat="43.71109" lon="1.46264">
        <ele>189</ele>
        <time>2016-01-24T15:21:31Z</time>
      </trkpt>
      <trkpt lat="43.71097" lon="1.46276">
        <ele>189</ele>
        <time>2016-01-24T15:23:31Z</time>
      </trkpt>
      <trkpt lat="43.71089" lon="1.46285">
        <ele>189</ele>
        <time>2016-01-24T15:25:31Z</time>
      </trkpt>
      <trkpt lat="43.71086" lon="1.4629">
        <ele>189</ele>
        <time>2016-01-24T15:27:31Z</time>
      </trkpt>
      <trkpt lat="43.71071" lon="1.46315">
        <ele>189</ele>
        <time>2016-01-24T15:29:31Z</time>
      </trkpt>
      <trkpt lat="43.71065" lon="1.46324">
        <ele>190</ele>
        <time>2016-01-24T15:31:31Z</time>
      </trkpt>
      <trkpt lat="43.71063" lon="1.46324">
        <ele>190</ele>
        <time>2016-01-24T15:33:31Z</time>
      </trkpt>
      <trkpt lat="43.71062" lon="1.46324">
        <ele>190</ele>
        <time>2016-01-24T15:35:31Z</time>
      </trkpt>
      <trkpt lat="43.71061" lon="1.46324">
        <ele>190</ele>
        <time>2016-01-24T15:37:31Z</time>
      </trkpt>
      <trkpt lat="43.7106" lon="1.46324">
        <ele>190</ele>
        <time>2016-01-24T15:39:31Z</time>
      </trkpt>
      <trkpt lat="43.71059" lon="1.46325">
        <ele>190</ele>
        <time>2016-01-24T15:41:31Z</time>
      </trkpt>
      <trkpt lat="43.71058" lon="1.46326">
        <ele>190</ele>
        <time>2016-01-24T15:43:31Z</time>
      </trkpt>
      <trkpt lat="43.71055" lon="1.46331">
        <ele>190</ele>
        <time>2016-01-24T15:45:31Z</time>
      </trkpt>
      <trkpt lat="43.71054" lon="1.46332">
        <ele>190</ele>
        <time>2016-01-24T15:47:31Z</time>
      </trkpt>
      <trkpt lat="43.71054" lon="1.46334">
        <ele>190</ele>
        <time>2016-01-24T15:49:31Z</time>
      </trkpt>
      <trkpt lat="43.71054" lon="1.46336">
        <ele>190</ele>
        <time>2016-01-24T15:51:31Z</time>
      </trkpt>
      <trkpt lat="43.71054" lon="1.46338">
        <ele>190</ele>
        <time>2016-01-24T15:53:31Z</time>
      </trkpt>
      <trkpt lat="43.71039" lon="1.46354">
        <ele>191</ele>
        <time>2016-01-24T15:55:31Z</time>
      </trkpt>
      <trkpt lat="43.71022" lon="1.46372">
        <ele>191</ele>
        <time>2016-01-24T15:57:31Z</time>
      </trkpt>
      <trkpt lat="43.7102" lon="1.46374">
        <ele>191</ele>
        <time>2016-01-24T15:59:31Z</time>
      </trkpt>
      <trkpt lat="43.7101" lon="1.46386">
        <ele>191</ele>
        <time>2016-01-24T16:01:31Z</time>
      </trkpt>
      <trkpt lat="43.70999" lon="1.464">
        <ele>191</ele>
        <time>2016-01-24T16:03:31Z</time>
      </trkpt>
      <trkpt lat="43.7099" lon="1.46414">
        <ele>191</ele>
        <time>2016-01-24T16:05:31Z</time>
      </trkpt>
      <trkpt lat="43.70987" lon="1.46419">
        <ele>191</ele>
        <time>2016-01-24T16:07:31Z</time>
      </trkpt>
      <trkpt lat="43.70985" lon="1.46421">
        <ele>192</ele>
        <time>2016-01-24T16:09:31Z</time>
      </trkpt>
      <trkpt lat="43.70967" lon="1.46446">
        <ele>192</ele>
        <time>2016-01-24T16:11:31Z</time>
      </trkpt>
      <trkpt lat="43.70961" lon="1.46456">
        <ele>193</ele>
        <time>2016-01-24T16:13:31Z</time>
      </trkpt>
      <trkpt lat="43.70946" lon="1.46474">
        <ele>193</ele>
        <time>2016-01-24T16:15:31Z</time>
      </trkpt>
      <trkpt lat="43.70942" lon="1.46478">
        <ele>194</ele>
        <time>2016-01-24T16:17:31Z</time>
      </trkpt>
      <trkpt lat="43.70933" lon="1.46489">
        <ele>194</ele>
        <time>2016-01-24T16:19:31Z</time>
      </trkpt>
      <trkpt lat="43.70932" lon="1.4649">
        <ele>194</ele>
        <time>2016-01-24T16:21:31Z</time>
      </trkpt>
      <trkpt lat="43.70919" lon="1.46502">
        <ele>195</ele>
        <time>2016-01-24T16:23:31Z</time>
      </trkpt>
      <trkpt lat="43.70917" lon="1.46505">
        <ele>195</ele>
        <time>2016-01-24T16:25:31Z</time>
      </trkpt>
      <trkpt lat="43.7091" lon="1.4651">
        <ele>195</ele>
        <time>2016-01-24T16:27:31Z</time>
      </trkpt>
      <trkpt lat="43.70893" lon="1.46524">
        <ele>195</ele>
        <time>2016-01-24T16:29:31Z</time>
      </trkpt>
      <trkpt lat="43.70858" lon="1.46555">
        <ele>195</ele>
        <time>2016-01-24T16:31:31Z</time>
      </trkpt>
      <trkpt lat="43.70832" lon="1.4658">
        <ele>195</ele>
        <time>2016-01-24T16:33:31Z</time>
      </trkpt>
      <trkpt lat="43.70782" lon="1.46626">
        <ele>196</ele>
        <time>2016-01-24T16:35:31Z</time>
      </trkpt>
      <trkpt lat="43.70748" lon="1.46657">
        <ele>197</ele>
        <time>2016-01-24T16:37:31Z</time>
      </trkpt>
      <trkpt lat="43.70742" lon="1.46663">
        <ele>197</ele>
        <time>2016-01-24T16:39:31Z</time>
      </trkpt>
      <trkpt lat="43.70742" lon="1.46663">
        <ele>197</ele>
        <time>2016-01-24T16:41:31Z</time>
      </trkpt>
      <trkpt lat="43.7073" lon="1.46671">
        <ele>198</ele>
        <time>2016-01-24T16:43:31Z</time>
      </trkpt>
      <trkpt lat="43.7072" lon="1.46677">
        <ele>198</ele>
        <time>2016-01-24T16:45:31Z</time>
      </trkpt>
      <trkpt lat="43.70711" lon="1.46681">
        <ele>199</ele>
        <time>2016-01-24T16:47:31Z</time>
      </trkpt>
      <trkpt lat="43.70707" lon="1.4668">
        <ele>199</ele>
        <time>2016-01-24T16:49:31Z</time>
      </trkpt>
      <trkpt lat="43.70704" lon="1.46681">
        <ele>199</ele>
        <time>2016-01-24T16:51:31Z</time>
      </trkpt>
      <trkpt lat="43.70701" lon="1.46684">
        <ele>199</ele>
        <time>2016-01-24T16:53:31Z</time>
      </trkpt>
      <trkpt lat="43.70699" lon="1.46686">
        <ele>199</ele>
        <time>2016-01-24T16:55:31Z</time>
      </trkpt>
      <trkpt lat="43.70697" lon="1.4669">
        <ele>199</ele>
        <time>2016-01-24T16:57:31Z</time>
      </trkpt>
      <trkpt lat="43.70694" lon="1.46697">
        <ele>200</ele>
        <time>2016-01-24T16:59:31Z</time>
      </trkpt>
      <trkpt lat="43.70691" lon="1.46704">
        <ele>200</ele>
        <time>2016-01-24T17:01:31Z</time>
      </trkpt>
      <trkpt lat="43.70687" lon="1.46711">
        <ele>200</ele>
        <time>2016-01-24T17:03:31Z</time>
      </trkpt>
      <trkpt lat="43.70641" lon="1.4676">
        <ele>201</ele>
        <time>2016-01-24T17:05:31Z</time>
      </trkpt>
      <trkpt lat="43.70636" lon="1.46765">
        <ele>201</ele>
        <time>2016-01-24T17:07:31Z</time>
      </trkpt>
      <trkpt lat="43.70626" lon="1.46775">
        <ele>201</ele>
        <time>2016-01-24T17:09:31Z</time>
      </trkpt>
      <trkpt lat="43.70619" lon="1.4678">
        <ele>201</ele>
        <time>2016-01-24T17:11:31Z</time>
      </trkpt>
      <trkpt lat="43.70613" lon="1.46783">
        <ele>201</ele>
        <time>2016-01-24T17:13:31Z</time>
      </trkpt>
      <trkpt lat="43.70613" lon="1.46783">
        <ele>201</ele>
        <time>2016-01-24T17:15:31Z</time>
      </trkpt>
      <trkpt lat="43.70611" lon="1.46783">
        <ele>201</ele>
        <time>2016-01-24T17:17:31Z</time>
      </trkpt>
      <trkpt lat="43.70608" lon="1.46785">
        <ele>201</ele>
        <time>2016-01-24T17:19:31Z</time>
      </trkpt>
      <trkpt lat="43.70606" lon="1.46789">
        <ele>201</ele>
        <time>2016-01-24T17:21:31Z</time>
      </trkpt>
      <trkpt lat="43.70605" lon="1.46793">
        <ele>201</ele>
        <time>2016-01-24T17:23:31Z</time>
      </trkpt>
      <trkpt lat="43.70605" lon="1.46796">
        <ele>201</ele>
        <time>2016-01-24T17:25:31Z</time>
      </trkpt>
      <trkpt lat="43.70605" lon="1.46799">
        <ele>201</ele>
        <time>2016-01-24T17:27:31Z</time>
      </trkpt>
      <trkpt lat="43.70606" lon="1.46803">
        <ele>200</ele>
        <time>2016-01-24T17:29:31Z</time>
      </trkpt>
      <trkpt lat="43.70607" lon="1.46805">
        <ele>200</ele>
        <time>2016-01-24T17:31:31Z</time>
      </trkpt>
      <trkpt lat="43.70608" lon="1.46806">
        <ele>200</ele>
        <time>2016-01-24T17:33:31Z</time>
      </trkpt>
      <trkpt lat="43.7061" lon="1.46808">
        <ele>200</ele>
        <time>2016-01-24T17:35:31Z</time>
      </trkpt>
      <trkpt lat="43.70612" lon="1.46808">
        <ele>200</ele>
        <time>2016-01-24T17:37:31Z</time>
      </trkpt>
      <trkpt lat="43.70614" lon="1.46808">
        <ele>200</ele>
        <time>2016-01-24T17:39:31Z</time>
      </trkpt>
      <trkpt lat="43.70615" lon="1.46807">
        <ele>200</ele>
        <time>2016-01-24T17:41:31Z</time>
      </trkpt>
      <trkpt lat="43.70617" lon="1.46806">
        <ele>200</ele>
        <time>2016-01-24T17:43:31Z</time>
      </trkpt>
      <trkpt lat="43.70628" lon="1.46813">
        <ele>200</ele>
        <time>2016-01-24T17:45:31Z</time>
      </trkpt>
      <trkpt lat="43.70632" lon="1.46816">
        <ele>199</ele>
        <time>2016-01-24T17:47:31Z</time>
      </trkpt>
      <trkpt lat="43.70637" lon="1.46819">
        <ele>199</ele>
        <time>2016-01-24T17:49:31Z</time>
      </trkpt>
      <trkpt lat="43.70645" lon="1.46826">
        <ele>199</ele>
        <time>2016-01-24T17:51:31Z</time>
      </trkpt>
      <trkpt lat="43.70699" lon="1.46862">
        <ele>197</ele>
        <time>2016-01-24T17:53:31Z</time>
      </trkpt>
      <trkpt lat="43.70726" lon="1.46881">
        <ele>196</ele>
        <time>2016-01-24T17:55:31Z</time>
      </trkpt>
      <trkpt lat="43.70741" lon="1.46893">
        <ele>196</ele>
        <time>2016-01-24T17:57:31Z</time>
      </trkpt>
      <trkpt lat="43.7075" lon="1.46902">
        <ele>196</ele>
        <time>2016-01-24T17:59:31Z</time>
      </trkpt>
      <trkpt lat="43.70768" lon="1.46925">
        <ele>195</ele>
        <time>2016-01-24T18:01:31Z</time>
      </trkpt>
      <trkpt lat="43.70768" lon="1.46926">
        <ele>195</ele>
        <time>2016-01-24T18:03:31Z</time>
      </trkpt>
      <trkpt lat="43.70806" lon="1.46988">
        <ele>193</ele>
        <time>2016-01-24T18:05:31Z</time>
      </trkpt>
      <trkpt lat="43.7085" lon="1.47059">
        <ele>191</ele>
        <time>2016-01-24T18:07:31Z</time>
      </trkpt>
      <trkpt lat="43.70903" lon="1.47142">
        <ele>190</ele>
        <time>2016-01-24T18:09:31Z</time>
      </trkpt>
      <trkpt lat="43.70907" lon="1.47149">
        <ele>190</ele>
        <time>2016-01-24T18:11:31Z</time>
      </trkpt>
      <trkpt lat="43.70996" lon="1.4728">
        <ele>185</ele>
        <time>2016-01-24T18:13:31Z</time>
      </trkpt>
      <trkpt lat="43.71066" lon="1.47383">
        <ele>182</ele>
        <time>2016-01-24T18:15:31Z</time>
      </trkpt>
      <trkpt lat="43.71105" lon="1.47437">
        <ele>179</ele>
        <time>2016-01-24T18:17:31Z</time>
      </trkpt>
      <trkpt lat="43.7114" lon="1.47482">
        <ele>176</ele>
        <time>2016-01-24T18:19:31Z</time>
      </trkpt>
      <trkpt lat="43.71156" lon="1.47501">
        <ele>175</ele>
        <time>2016-01-24T18:21:31Z</time>
      </trkpt>
      <trkpt lat="43.71192" lon="1.47547">
        <ele>174</ele>
        <time>2016-01-24T18:23:31Z</time>
      </trkpt>
      <trkpt lat="43.71199" lon="1.47556">
        <ele>174</ele>
        <time>2016-01-24T18:25:31Z</time>
      </trkpt>
      <trkpt lat="43.71203" lon="1.47562">
        <ele>174</ele>
        <time>2016-01-24T18:27:31Z</time>
      </trkpt>
      <trkpt lat="43.71215" lon="1.47576">
        <ele>175</ele>
        <time>2016-01-24T18:29:31Z</time>
      </trkpt>
      <trkpt lat="43.71221" lon="1.47584">
        <ele>175</ele>
        <time>2016-01-24T18:31:31Z</time>
      </trkpt>
      <trkpt lat="43.71237" lon="1.47604">
        <ele>175</ele>
        <time>2016-01-24T18:33:31Z</time>
      </trkpt>
      <trkpt lat="43.71249" lon="1.47617">
        <ele>176</ele>
        <time>2016-01-24T18:35:31Z</time>
      </trkpt>
      <trkpt lat="43.71258" lon="1.47626">
        <ele>175</ele>
        <time>2016-01-24T18:37:31Z</time>
      </trkpt>
      <trkpt lat="43.71261" lon="1.47625">
        <ele>175</ele>
        <time>2016-01-24T18:39:31Z</time>
      </trkpt>
      <trkpt lat="43.71263" lon="1.47627">
        <ele>175</ele>
        <time>2016-01-24T18:41:31Z</time>
      </trkpt>
      <trkpt lat="43.71265" lon="1.47628">
        <ele>175</ele>
        <time>2016-01-24T18:43:31Z</time>
      </trkpt>
      <trkpt lat="43.71266" lon="1.47632">
        <ele>175</ele>
        <time>2016-01-24T18:45:31Z</time>
      </trkpt>
      <trkpt lat="43.71267" lon="1.47635">
        <ele>175</ele>
        <time>2016-01-24T18:47:31Z</time>
      </trkpt>
      <trkpt lat="43.71266" lon="1.47637">
        <ele>175</ele>
        <time>2016-01-24T18:49:31Z</time>
      </trkpt>
      <trkpt lat="43.71273" lon="1.47646">
        <ele>175</ele>
        <time>2016-01-24T18:51:31Z</time>
      </trkpt>
      <trkpt lat="43.71287" lon="1.47662">
        <ele>175</ele>
        <time>2016-01-24T18:53:31Z</time>
      </trkpt>
      <trkpt lat="43.71291" lon="1.47668">
        <ele>175</ele>
        <time>2016-01-24T18:55:31Z</time>
      </trkpt>
      <trkpt lat="43.71296" lon="1.47674">
        <ele>175</ele>
        <time>2016-01-24T18:57:31Z</time>
      </trkpt>
      <trkpt lat="43.713" lon="1.47677">
        <ele>175</ele>
        <time>2016-01-24T18:59:31Z</time>
      </trkpt>
      <trkpt lat="43.71305" lon="1.47683">
        <ele>175</ele>
        <time>2016-01-24T19:01:31Z</time>
      </trkpt>
      <trkpt lat="43.71306" lon="1.47683">
        <ele>175</ele>
        <time>2016-01-24T19:03:31Z</time>
      </trkpt>
      <trkpt lat="43.71333" lon="1.47709">
        <ele>175</ele>
        <time>2016-01-24T19:05:31Z</time>
      </trkpt>
      <trkpt lat="43.71334" lon="1.47711">
        <ele>175</ele>
        <time>2016-01-24T19:07:31Z</time>
      </trkpt>
      <trkpt lat="43.71347" lon="1.47723">
        <ele>174</ele>
        <time>2016-01-24T19:09:31Z</time>
      </trkpt>
      <trkpt lat="43.71359" lon="1.47734">
        <ele>174</ele>
        <time>2016-01-24T19:11:31Z</time>
      </trkpt>
      <trkpt lat="43.71368" lon="1.47743">
        <ele>174</ele>
        <time>2016-01-24T19:13:31Z</time>
      </trkpt>
      <trkpt lat="43.71462" lon="1.47833">
        <ele>176</ele>
        <time>2016-01-24T19:15:31Z</time>
      </trkpt>
      <trkpt lat="43.71509" lon="1.47878">
        <ele>177</ele>
        <time>2016-01-24T19:17:31Z</time>
      </trkpt>
      <trkpt lat="43.71527" lon="1.47895">
        <ele>178</ele>
        <time>2016-01-24T19:19:31Z</time>
      </trkpt>
      <trkpt lat="43.71532" lon="1.479">
        <ele>178</ele>
        <time>2016-01-24T19:21:31Z</time>
      </trkpt>
      <trkpt lat="43.71537" lon="1.47905">
        <ele>178</ele>
        <time>2016-01-24T19:23:31Z</time>
      </trkpt>
      <trkpt lat="43.71542" lon="1.47909">
        <ele>178</ele>
        <time>2016-01-24T19:25:31Z</time>
      </trkpt>
      <trkpt lat="43.71547" lon="1.47913">
        <ele>178</ele>
        <time>2016-01-24T19:27:31Z</time>
      </trkpt>
      <trkpt lat="43.71547" lon="1.47915">
        <ele>179</ele>
        <time>2016-01-24T19:29:31Z</time>
      </trkpt>
      <trkpt lat="43.71546" lon="1.47916">
        <ele>179</ele>
        <time>2016-01-24T19:31:31Z</time>
      </trkpt>
      <trkpt lat="43.71546" lon="1.47917">
        <ele>179</ele>
        <time>2016-01-24T19:33:31Z</time>
      </trkpt>
      <trkpt lat="43.71547" lon="1.47918">
        <ele>179</ele>
        <time>2016-01-24T19:35:31Z</time>
      </trkpt>
      <trkpt lat="43.71547" lon="1.4792">
        <ele>179</ele>
        <time>2016-01-24T19:37:31Z</time>
      </trkpt>
      <trkpt lat="43.71549" lon="1.47922">
        <ele>179</ele>
        <time>2016-01-24T19:39:31Z</time>
      </trkpt>
      <trkpt lat="43.71551" lon="1.47922">
        <ele>179</ele>
        <time>2016-01-24T19:41:31Z</time>
      </trkpt>
      <trkpt lat="43.71552" lon="1.47922">
        <ele>179</ele>
        <time>2016-01-24T19:43:31Z</time>
      </trkpt>
      <trkpt lat="43.71553" lon="1.47921">
        <ele>179</ele>
        <time>2016-01-24T19:45:31Z</time>
      </trkpt>
      <trkpt lat="43.71557" lon="1.47935">
        <ele>179</ele>
        <time>2016-01-24T19:47:31Z</time>
      </trkpt>
      <trkpt lat="43.71572" lon="1.47977">
        <ele>181</ele>
        <time>2016-01-24T19:49:31Z</time>
      </trkpt>
      <trkpt lat="43.71574" lon="1.47982">
        <ele>181</ele>
        <time>2016-01-24T19:51:31Z</time>
      </trkpt>
      <trkpt lat="43.71574" lon="1.47982">
        <ele>181</ele>
        <time>2016-01-24T19:53:31Z</time>
      </trkpt>
      <trkpt lat="43.71586" lon="1.48037">
        <ele>183</ele>
        <time>2016-01-24T19:55:31Z</time>
      </trkpt>
      <trkpt lat="43.71593" lon="1.48071">
        <ele>183</ele>
        <time>2016-01-24T19:57:31Z</time>
      </trkpt>
      <trkpt lat="43.71593" lon="1.48071">
        <ele>183</ele>
        <time>2016-01-24T19:59:31Z</time>
      </trkpt>
      <trkpt lat="43.71565" lon="1.48083">
        <ele>183</ele>
        <time>2016-01-24T20:01:31Z</time>
      </trkpt>
      <trkpt lat="43.71528" lon="1.48094">
        <ele>183</ele>
        <time>2016-01-24T20:03:31Z</time>
      </trkpt>
      <trkpt lat="43.71509" lon="1.48099">
        <ele>183</ele>
        <time>2016-01-24T20:05:31Z</time>
      </trkpt>
      <trkpt lat="43.71494" lon="1.48101">
        <ele>183</ele>
        <time>2016-01-24T20:07:31Z</time>
      </trkpt>
      <trkpt lat="43.71474" lon="1.48104">
        <ele>183</ele>
        <time>2016-01-24T20:09:31Z</time>
      </trkpt>
      <trkpt lat="43.71461" lon="1.48106">
        <ele>182</ele>
        <time>2016-01-24T20:11:31Z</time>
      </trkpt>
      <trkpt lat="43.71455" lon="1.48107">
        <ele>182</ele>
        <time>2016-01-24T20:13:31Z</time>
      </trkpt>
      <trkpt lat="43.71445" lon="1.48108">
        <ele>182</ele>
        <time>2016-01-24T20:15:31Z</time>
      </trkpt>
      <trkpt lat="43.71438" lon="1.48109">
        <ele>182</ele>
        <time>2016-01-24T20:17:31Z</time>
      </trkpt>
      <trkpt lat="43.71428" lon="1.48111">
        <ele>182</ele>
        <time>2016-01-24T20:19:31Z</time>
      </trkpt>
      <trkpt lat="43.71423" lon="1.48111">
        <ele>182</ele>
        <time>2016-01-24T20:21:31Z</time>
      </trkpt>
      <trkpt lat="43.71423" lon="1.48111">
        <ele>182</ele>
        <time>2016-01-24T20:23:31Z</time>
      </trkpt>
      <trkpt lat="43.71423" lon="1.48109">
        <ele>182</ele>
        <time>2016-01-24T20:25:31Z</time>
      </trkpt>
      <trkpt lat="43.71423" lon="1.48107">
        <ele>182</ele>
        <time>2016-01-24T20:27:31Z</time>
      </trkpt>
      <trkpt lat="43.71423" lon="1.48105">
        <ele>182</ele>
        <time>2016-01-24T20:29:31Z</time>
      </trkpt>
      <trkpt lat="43.71422" lon="1.48104">
        <ele>182</ele>
        <time>2016-01-24T20:31:31Z</time>
      </trkpt>
      <trkpt lat="43.71421" lon="1.48102">
        <ele>182</ele>
        <time>2016-01-24T20:33:31Z</time>
      </trkpt>
      <trkpt lat="43.71413" lon="1.48084">
        <ele>181</ele>
        <time>2016-01-24T20:35:31Z</time>
      </trkpt>
      <trkpt lat="43.71407" lon="1.48067">
        <ele>181</ele>
        <time>2016-01-24T20:37:31Z</time>
      </trkpt>
      <trkpt lat="43.71406" lon="1.48066">
        <ele>181</ele>
        <time>2016-01-24T20:39:31Z</time>
      </trkpt>
      <trkpt lat="43.714" lon="1.48048">
        <ele>180</ele>
        <time>2016-01-24T20:41:31Z</time>
      </trkpt>
      <trkpt lat="43.71394" lon="1.48034">
        <ele>180</ele>
        <time>2016-01-24T20:43:31Z</time>
      </trkpt>
      <trkpt lat="43.71389" lon="1.48026">
        <ele>180</ele>
        <time>2016-01-24T20:45:31Z</time>
      </trkpt>
      <trkpt lat="43.71384" lon="1.48019">
        <ele>180</ele>
        <time>2016-01-24T20:47:31Z</time>
      </trkpt>
      <trkpt lat="43.71376" lon="1.48011">
        <ele>180</ele>
        <time>2016-01-24T20:49:31Z</time>
      </trkpt>
      <trkpt lat="43.71365" lon="1.48004">
        <ele>180</ele>
        <time>2016-01-24T20:51:31Z</time>
      </trkpt>
      <trkpt lat="43.71356" lon="1.47997">
        <ele>180</ele>
        <time>2016-01-24T20:53:31Z</time>
      </trkpt>
      <trkpt lat="43.71353" lon="1.47995">
        <ele>180</ele>
        <time>2016-01-24T20:55:31Z</time>
      </trkpt>
      <trkpt lat="43.71308" lon="1.47971">
        <ele>179</ele>
        <time>2016-01-24T20:57:31Z</time>
      </trkpt>
      <trkpt lat="43.71306" lon="1.4797">
        <ele>179</ele>
        <time>2016-01-24T20:59:31Z</time>
      </trkpt>
      <trkpt lat="43.71291" lon="1.47961">
        <ele>179</ele>
        <time>2016-01-24T21:01:31Z</time>
      </trkpt>
      <trkpt lat="43.71289" lon="1.4796">
        <ele>179</ele>
        <time>2016-01-24T21:03:31Z</time>
      </trkpt>
      <trkpt lat="43.7128" lon="1.47951">
        <ele>178</ele>
        <time>2016-01-24T21:05:31Z</time>
      </trkpt>
      <trkpt lat="43.7127" lon="1.47939">
        <ele>178</ele>
        <time>2016-01-24T21:07:31Z</time>
      </trkpt>
      <trkpt lat="43.71257" lon="1.47921">
        <ele>178</ele>
        <time>2016-01-24T21:09:31Z</time>
      </trkpt>
      <trkpt lat="43.71255" lon="1.47919">
        <ele>178</ele>
        <time>2016-01-24T21:11:31Z</time>
      </trkpt>
      <trkpt lat="43.71254" lon="1.47916">
        <ele>178</ele>
        <time>2016-01-24T21:13:31Z</time>
      </trkpt>
      <trkpt lat="43.71254" lon="1.47916">
        <ele>178</ele>
        <time>2016-01-24T21:15:31Z</time>
      </trkpt>
      <trkpt lat="43.71247" lon="1.4791">
        <ele>178</ele>
        <time>2016-01-24T21:17:31Z</time>
      </trkpt>
      <trkpt lat="43.71246" lon="1.47908">
        <ele>178</ele>
        <time>2016-01-24T21:19:31Z</time>
      </trkpt>
      <trkpt lat="43.71241" lon="1.47905">
        <ele>178</ele>
        <time>2016-01-24T21:21:31Z</time>
      </trkpt>
      <trkpt lat="43.71238" lon="1.47903">
        <ele>178</ele>
        <time>2016-01-24T21:23:31Z</time>
      </trkpt>
      <trkpt lat="43.71233" lon="1.479">
        <ele>178</ele>
        <time>2016-01-24T21:25:31Z</time>
      </trkpt>
      <trkpt lat="43.71223" lon="1.47897">
        <ele>178</ele>
        <time>2016-01-24T21:27:31Z</time>
      </trkpt>
      <trkpt lat="43.71219" lon="1.47896">
        <ele>178</ele>
        <time>2016-01-24T21:29:31Z</time>
      </trkpt>
      <trkpt lat="43.71214" lon="1.47893">
        <ele>179</ele>
        <time>2016-01-24T21:31:31Z</time>
      </trkpt>
      <trkpt lat="43.71214" lon="1.47893">
        <ele>179</ele>
        <time>2016-01-24T21:33:31Z</time>
      </trkpt>
      <trkpt lat="43.71212" lon="1.47895">
        <ele>179</ele>
        <time>2016-01-24T21:35:31Z</time>
      </trkpt>
      <trkpt lat="43.71211" lon="1.47895">
        <ele>179</ele>
        <time>2016-01-24T21:37:31Z</time>
      </trkpt>
      <trkpt lat="43.71209" lon="1.47895">
        <ele>179</ele>
        <time>2016-01-24T21:39:31Z</time>
      </trkpt>
      <trkpt lat="43.71201" lon="1.47903">
        <ele>179</ele>
        <time>2016-01-24T21:41:31Z</time>
      </trkpt>
      <trkpt lat="43.71194" lon="1.47911">
        <ele>179</ele>
        <time>2016-01-24T21:43:31Z</time>
      </trkpt>
      <trkpt lat="43.71189" lon="1.47919">
        <ele>179</ele>
        <time>2016-01-24T21:45:31Z</time>
      </trkpt>
      <trkpt lat="43.71183" lon="1.47926">
        <ele>180</ele>
        <time>2016-01-24T21:47:31Z</time>
      </trkpt>
      <trkpt lat="43.71177" lon="1.47932">
        <ele>180</ele>
        <time>2016-01-24T21:49:31Z</time>
      </trkpt>
      <trkpt lat="43.71169" lon="1.47936">
        <ele>180</ele>
        <time>2016-01-24T21:51:31Z</time>
      </trkpt>
      <trkpt lat="43.71163" lon="1.47937">
        <ele>180</ele>
        <time>2016-01-24T21:53:31Z</time>
      </trkpt>
      <trkpt lat="43.71159" lon="1.47937">
        <ele>180</ele>
        <time>2016-01-24T21:55:31Z</time>
      </trkpt>
      <trkpt lat="43.71155" lon="1.47937">
        <ele>180</ele>
        <time>2016-01-24T21:57:31Z</time>
      </trkpt>
      <trkpt lat="43.71149" lon="1.47935">
        <ele>180</ele>
        <time>2016-01-24T21:59:31Z</time>
      </trkpt>
      <trkpt lat="43.71144" lon="1.47932">
        <ele>180</ele>
        <time>2016-01-24T22:01:31Z</time>
      </trkpt>
      <trkpt lat="43.71136" lon="1.47927">
        <ele>181</ele>
        <time>2016-01-24T22:03:31Z</time>
      </trkpt>
      <trkpt lat="43.71127" lon="1.47921">
        <ele>181</ele>
        <time>2016-01-24T22:05:31Z</time>
      </trkpt>
      <trkpt lat="43.71116" lon="1.47912">
        <ele>181</ele>
        <time>2016-01-24T22:07:31Z</time>
      </trkpt>
      <trkpt lat="43.71106" lon="1.47904">
        <ele>181</ele>
        <time>2016-01-24T22:09:31Z</time>
      </trkpt>
      <trkpt lat="43.71098" lon="1.47897">
        <ele>181</ele>
        <time>2016-01-24T22:11:31Z</time>
      </trkpt>
      <trkpt lat="43.71091" lon="1.47891">
        <ele>182</ele>
        <time>2016-01-24T22:13:31Z</time>
      </trkpt>
      <trkpt lat="43.71072" lon="1.47871">
        <ele>181</ele>
        <time>2016-01-24T22:15:31Z</time>
      </trkpt>
      <trkpt lat="43.71058" lon="1.47857">
        <ele>181</ele>
        <time>2016-01-24T22:17:31Z</time>
      </trkpt>
      <trkpt lat="43.71047" lon="1.47848">
        <ele>181</ele>
        <time>2016-01-24T22:19:31Z</time>
      </trkpt>
      <trkpt lat="43.71039" lon="1.47841">
        <ele>181</ele>
        <time>2016-01-24T22:21:31Z</time>
      </trkpt>
      <trkpt lat="43.71037" lon="1.47839">
        <ele>181</ele>
        <time>2016-01-24T22:23:31Z</time>
      </trkpt>
      <trkpt lat="43.7102" lon="1.47834">
        <ele>180</ele>
        <time>2016-01-24T22:25:31Z</time>
      </trkpt>
      <trkpt lat="43.71017" lon="1.47832">
        <ele>180</ele>
        <time>2016-01-24T22:27:31Z</time>
      </trkpt>
      <trkpt lat="43.70996" lon="1.47814">
        <ele>180</ele>
        <time>2016-01-24T22:29:31Z</time>
      </trkpt>
      <trkpt lat="43.70993" lon="1.47812">
        <ele>180</ele>
        <time>2016-01-24T22:31:31Z</time>
      </trkpt>
      <trkpt lat="43.70982" lon="1.47806">
        <ele>180</ele>
        <time>2016-01-24T22:33:31Z</time>
      </trkpt>
      <trkpt lat="43.7097" lon="1.47801">
        <ele>180</ele>
        <time>2016-01-24T22:35:31Z</time>
      </trkpt>
      <trkpt lat="43.70961" lon="1.47798">
        <ele>180</ele>
        <time>2016-01-24T22:37:31Z</time>
      </trkpt>
      <trkpt lat="43.70948" lon="1.47796">
        <ele>180</ele>
        <time>2016-01-24T22:39:31Z</time>
      </trkpt>
      <trkpt lat="43.70918" lon="1.47799">
        <ele>181</ele>
        <time>2016-01-24T22:41:31Z</time>
      </trkpt>
      <trkpt lat="43.7091" lon="1.47801">
        <ele>181</ele>
        <time>2016-01-24T22:43:31Z</time>
      </trkpt>
      <trkpt lat="43.709" lon="1.47807">
        <ele>182</ele>
        <time>2016-01-24T22:45:31Z</time>
      </trkpt>
      <trkpt lat="43.70888" lon="1.47815">
        <ele>182</ele>
        <time>2016-01-24T22:47:31Z</time>
      </trkpt>
      <trkpt lat="43.70871" lon="1.47831">
        <ele>183</ele>
        <time>2016-01-24T22:49:31Z</time>
      </trkpt>
      <trkpt lat="43.70844" lon="1.47854">
        <ele>184</ele>
        <time>2016-01-24T22:51:31Z</time>
      </trkpt>
      <trkpt lat="43.70838" lon="1.47858">
        <ele>184</ele>
        <time>2016-01-24T22:53:31Z</time>
      </trkpt>
      <trkpt lat="43.70832" lon="1.47859">
        <ele>185</ele>
        <time>2016-01-24T22:55:31Z</time>
      </trkpt>
      <trkpt lat="43.70813" lon="1.47856">
        <ele>185</ele>
        <time>2016-01-24T22:57:31Z</time>
      </trkpt>
      <trkpt lat="43.70796" lon="1.4785">
        <ele>185</ele>
        <time>2016-01-24T22:59:31Z</time>
      </trkpt>
      <trkpt lat="43.70774" lon="1.47839">
        <ele>186</ele>
        <time>2016-01-24T23:01:31Z</time>
      </trkpt>
      <trkpt lat="43.70751" lon="1.47824">
        <ele>186</ele>
        <time>2016-01-24T23:03:31Z</time>
      </trkpt>
      <trkpt lat="43.70729" lon="1.47812">
        <ele>186</ele>
        <time>2016-01-24T23:05:31Z</time>
      </trkpt>
      <trkpt lat="43.70712" lon="1.47805">
        <ele>185</ele>
        <time>2016-01-24T23:07:31Z</time>
      </trkpt>
      <trkpt lat="43.7065" lon="1.47791">
        <ele>186</ele>
        <time>2016-01-24T23:09:31Z</time>
      </trkpt>
      <trkpt lat="43.70564" lon="1.47777">
        <ele>186</ele>
        <time>2016-01-24T23:11:31Z</time>
      </trkpt>
      <trkpt lat="43.70497" lon="1.47768">
        <ele>187</ele>
        <time>2016-01-24T23:13:31Z</time>
      </trkpt>
      <trkpt lat="43.70489" lon="1.47766">
        <ele>187</ele>
        <time>2016-01-24T23:15:31Z</time>
      </trkpt>
      <trkpt lat="43.70483" lon="1.47768">
        <ele>187</ele>
        <time>2016-01-24T23:17:31Z</time>
      </trkpt>
      <trkpt lat="43.70483" lon="1.47768">
        <ele>187</ele>
        <time>2016-01-24T23:19:31Z</time>
      </trkpt>
      <trkpt lat="43.70415" lon="1.47735">
        <ele>189</ele>
        <time>2016-01-24T23:21:31Z</time>
      </trkpt>
      <trkpt lat="43.70415" lon="1.47735">
        <ele>189</ele>
        <time>2016-01-24T23:23:31Z</time>
      </trkpt>
      <trkpt lat="43.70377" lon="1.47715">
        <ele>192</ele>
        <time>2016-01-24T23:25:31Z</time>
      </trkpt>
      <trkpt lat="43.70348" lon="1.47702">
        <ele>194</ele>
        <time>2016-01-24T23:27:31Z</time>
      </trkpt>
      <trkpt lat="43.70342" lon="1.47699">
        <ele>194</ele>
        <time>2016-01-24T23:29:31Z</time>
      </trkpt>
      <trkpt lat="43.70306" lon="1.47679">
        <ele>194</ele>
        <time>2016-01-24T23:31:31Z</time>
      </trkpt>
      <trkpt lat="43.70277" lon="1.47661">
        <ele>194</ele>
        <time>2016-01-24T23:33:31Z</time>
      </trkpt>
      <trkpt lat="43.70263" lon="1.47651">
        <ele>195</ele>
        <time>2016-01-24T23:35:31Z</time>
      </trkpt>
      <trkpt lat="43.70234" lon="1.47628">
        <ele>196</ele>
        <time>2016-01-24T23:37:31Z</time>
      </trkpt>
      <trkpt lat="43.70209" lon="1.47609">
        <ele>198</ele>
        <time>2016-01-24T23:39:31Z</time>
      </trkpt>
      <trkpt lat="43.70203" lon="1.47606">
        <ele>199</ele>
        <time>2016-01-24T23:41:31Z</time>
      </trkpt>
      <trkpt lat="43.70198" lon="1.47604">
        <ele>199</ele>
        <time>2016-01-24T23:43:31Z</time>
      </trkpt>
      <trkpt lat="43.70193" lon="1.47602">
        <ele>199</ele>
        <time>2016-01-24T23:45:31Z</time>
      </trkpt>
      <trkpt lat="43.70183" lon="1.47606">
        <ele>200</ele>
        <time>2016-01-24T23:47:31Z</time>
      </trkpt>
      <trkpt lat="43.7015" lon="1.47622">
        <ele>199</ele>
        <time>2016-01-24T23:49:31Z</time>
      </trkpt>
      <trkpt lat="43.7014" lon="1.47626">
        <ele>199</ele>
        <time>2016-01-24T23:51:31Z</time>
      </trkpt>
      <trkpt lat="43.70132" lon="1.47628">
        <ele>199</ele>
        <time>2016-01-24T23:53:31Z</time>
      </trkpt>
      <trkpt lat="43.70097" lon="1.47626">
        <ele>199</ele>
        <time>2016-01-24T23:55:31Z</time>
      </trkpt>
      <trkpt lat="43.70065" lon="1.4762">
        <ele>200</ele>
        <time>2016-01-24T23:57:31Z</time>
      </trkpt>
      <trkpt lat="43.70047" lon="1.47618">
        <ele>201</ele>
        <time>2016-01-24T23:59:31Z</time>
      </trkpt>
      <trkpt lat="43.7003" lon="1.47619">
        <ele>201</ele>
        <time>2016-01-25T00:01:31Z</time>
      </trkpt>
      <trkpt lat="43.7001" lon="1.47626">
        <ele>201</ele>
        <time>2016-01-25T00:03:31Z</time>
      </trkpt>
      <trkpt lat="43.69998" lon="1.47634">
        <ele>201</ele>
        <time>2016-01-25T00:05:31Z</time>
      </trkpt>
      <trkpt lat="43.69985" lon="1.47646">
        <ele>202</ele>
        <time>2016-01-25T00:07:31Z</time>
      </trkpt>
      <trkpt lat="43.69972" lon="1.47663">
        <ele>202</ele>
        <time>2016-01-25T00:09:31Z</time>
      </trkpt>
      <trkpt lat="43.69955" lon="1.47685">
        <ele>204</ele>
        <time>2016-01-25T00:11:31Z</time>
      </trkpt>
      <trkpt lat="43.69927" lon="1.47724">
        <ele>206</ele>
        <time>2016-01-25T00:13:31Z</time>
      </trkpt>
      <trkpt lat="43.69915" lon="1.47741">
        <ele>207</ele>
        <time>2016-01-25T00:15:31Z</time>
      </trkpt>
      <trkpt lat="43.69904" lon="1.47757">
        <ele>207</ele>
        <time>2016-01-25T00:17:31Z</time>
      </trkpt>
      <trkpt lat="43.69904" lon="1.47757">
        <ele>207</ele>
        <time>2016-01-25T00:19:31Z</time>
      </trkpt>
      <trkpt lat="43.69896" lon="1.47762">
        <ele>207</ele>
        <time>2016-01-25T00:21:31Z</time>
      </trkpt>
      <trkpt lat="43.69891" lon="1.47767">
        <ele>208</ele>
        <time>2016-01-25T00:23:31Z</time>
      </trkpt>
      <trkpt lat="43.6989" lon="1.47766">
        <ele>208</ele>
        <time>2016-01-25T00:25:31Z</time>
      </trkpt>
      <trkpt lat="43.69889" lon="1.47766">
        <ele>208</ele>
        <time>2016-01-25T00:27:31Z</time>
      </trkpt>
      <trkpt lat="43.69888" lon="1.47766">
        <ele>208</ele>
        <time>2016-01-25T00:29:31Z</time>
      </trkpt>
      <trkpt lat="43.69886" lon="1.47766">
        <ele>208</ele>
        <time>2016-01-25T00:31:31Z</time>
      </trkpt>
      <trkpt lat="43.69885" lon="1.47766">
        <ele>208</ele>
        <time>2016-01-25T00:33:31Z</time>
      </trkpt>
      <trkpt lat="43.69884" lon="1.47767">
        <ele>208</ele>
        <time>2016-01-25T00:35:31Z</time>
      </trkpt>
      <trkpt lat="43.69883" lon="1.47768">
        <ele>208</ele>
        <time>2016-01-25T00:37:31Z</time>
      </trkpt>
      <trkpt lat="43.69882" lon="1.4777">
        <ele>208</ele>
        <time>2016-01-25T00:39:31Z</time>
      </trkpt>
      <trkpt lat="43.69881" lon="1.47772">
        <ele>208</ele>
        <time>2016-01-25T00:41:31Z</time>
      </trkpt>
      <trkpt lat="43.69881" lon="1.47777">
        <ele>208</ele>
        <time>2016-01-25T00:43:31Z</time>
      </trkpt>
      <trkpt lat="43.69876" lon="1.47786">
        <ele>208</ele>
        <time>2016-01-25T00:45:31Z</time>
      </trkpt>
      <trkpt lat="43.69874" lon="1.47788">
        <ele>208</ele>
        <time>2016-01-25T00:47:31Z</time>
      </trkpt>
      <trkpt lat="43.69872" lon="1.4779">
        <ele>208</ele>
        <time>2016-01-25T00:49:31Z</time>
      </trkpt>
      <trkpt lat="43.69862" lon="1.47794">
        <ele>208</ele>
        <time>2016-01-25T00:51:31Z</time>
      </trkpt>
      <trkpt lat="43.69855" lon="1.47799">
        <ele>208</ele>
        <time>2016-01-25T00:53:31Z</time>
      </trkpt>
      <trkpt lat="43.69853" lon="1.47802">
        <ele>208</ele>
        <time>2016-01-25T00:55:31Z</time>
      </trkpt>
      <trkpt lat="43.69828" lon="1.47811">
        <ele>209</ele>
        <time>2016-01-25T00:57:31Z</time>
      </trkpt>
      <trkpt lat="43.69781" lon="1.47831">
        <ele>210</ele>
        <time>2016-01-25T00:59:31Z</time>
      </trkpt>
      <trkpt lat="43.6977" lon="1.47834">
        <ele>210</ele>
        <time>2016-01-25T01:01:31Z</time>
      </trkpt>
      <trkpt lat="43.69756" lon="1.47837">
        <ele>211</ele>
        <time>2016-01-25T01:03:31Z</time>
      </trkpt>
      <trkpt lat="43.69748" lon="1.47838">
        <ele>211</ele>
        <time>2016-01-25T01:05:31Z</time>
      </trkpt>
      <trkpt lat="43.69738" lon="1.47838">
        <ele>211</ele>
        <time>2016-01-25T01:07:31Z</time>
      </trkpt>
      <trkpt lat="43.6973" lon="1.47837">
        <ele>211</ele>
        <time>2016-01-25T01:09:31Z</time>
      </trkpt>
      <trkpt lat="43.69722" lon="1.47835">
        <ele>211</ele>
        <time>2016-01-25T01:11:31Z</time>
      </trkpt>
      <trkpt lat="43.69716" lon="1.47832">
        <ele>211</ele>
        <time>2016-01-25T01:13:31Z</time>
      </trkpt>
      <trkpt lat="43.69708" lon="1.47827">
        <ele>211</ele>
        <time>2016-01-25T01:15:31Z</time>
      </trkpt>
      <trkpt lat="43.69695" lon="1.47816">
        <ele>211</ele>
        <time>2016-01-25T01:17:31Z</time>
      </trkpt>
      <trkpt lat="43.69674" lon="1.47788">
        <ele>212</ele>
        <time>2016-01-25T01:19:31Z</time>
      </trkpt>
      <trkpt lat="43.69654" lon="1.47763">
        <ele>212</ele>
        <time>2016-01-25T01:21:31Z</time>
      </trkpt>
      <trkpt lat="43.69647" lon="1.47752">
        <ele>212</ele>
        <time>2016-01-25T01:23:31Z</time>
      </trkpt>
      <trkpt lat="43.69647" lon="1.47752">
        <ele>212</ele>
        <time>2016-01-25T01:25:31Z</time>
      </trkpt>
      <trkpt lat="43.69641" lon="1.47766">
        <ele>212</ele>
        <time>2016-01-25T01:27:31Z</time>
      </trkpt>
      <trkpt lat="43.69635" lon="1.47782">
        <ele>212</ele>
        <time>2016-01-25T01:29:31Z</time>
      </trkpt>
      <trkpt lat="43.69628" lon="1.47801">
        <ele>211</ele>
        <time>2016-01-25T01:31:31Z</time>
      </trkpt>
      <trkpt lat="43.69619" lon="1.4783">
        <ele>212</ele>
        <time>2016-01-25T01:33:31Z</time>
      </trkpt>
      <trkpt lat="43.69615" lon="1.47843">
        <ele>212</ele>
        <time>2016-01-25T01:35:31Z</time>
      </trkpt>
      <trkpt lat="43.69612" lon="1.47856">
        <ele>212</ele>
        <time>2016-01-25T01:37:31Z</time>
      </trkpt>
      <trkpt lat="43.69611" lon="1.47871">
        <ele>212</ele>
        <time>2016-01-25T01:39:31Z</time>
      </trkpt>
      <trkpt lat="43.69608" lon="1.47911">
        <ele>212</ele>
        <time>2016-01-25T01:41:31Z</time>
      </trkpt>
      <trkpt lat="43.69607" lon="1.47922">
        <ele>212</ele>
        <time>2016-01-25T01:43:31Z</time>
      </trkpt>
      <trkpt lat="43.69606" lon="1.4793">
        <ele>211</ele>
        <time>2016-01-25T01:45:31Z</time>
      </trkpt>
      <trkpt lat="43.69605" lon="1.47933">
        <ele>211</ele>
        <time>2016-01-25T01:47:31Z</time>
      </trkpt>
      <trkpt lat="43.69605" lon="1.47933">
        <ele>211</ele>
        <time>2016-01-25T01:49:31Z</time>
      </trkpt>
      <trkpt lat="43.69614" lon="1.47937">
        <ele>211</ele>
        <time>2016-01-25T01:51:31Z</time>
      </trkpt>
      <trkpt lat="43.69621" lon="1.47938">
        <ele>211</ele>
        <time>2016-01-25T01:53:31Z</time>
      </trkpt>
      <trkpt lat="43.69633" lon="1.47939">
        <ele>211</ele>
        <time>2016-01-25T01:55:31Z</time>
      </trkpt>
      <trkpt lat="43.69641" lon="1.47939">
        <ele>211</ele>
        <time>2016-01-25T01:57:31Z</time>
      </trkpt>
      <trkpt lat="43.6965" lon="1.47941">
        <ele>211</ele>
        <time>2016-01-25T01:59:31Z</time>
      </trkpt>
      <trkpt lat="43.69654" lon="1.47942">
        <ele>211</ele>
        <time>2016-01-25T02:01:31Z</time>
      </trkpt>
      <trkpt lat="43.69656" lon="1.47943">
        <ele>211</ele>
        <time>2016-01-25T02:03:31Z</time>
      </trkpt>
      <trkpt lat="43.69661" lon="1.47947">
        <ele>211</ele>
        <time>2016-01-25T02:05:31Z</time>
      </trkpt>
      <trkpt lat="43.69669" lon="1.47954">
        <ele>211</ele>
        <time>2016-01-25T02:07:31Z</time>
      </trkpt>
      <trkpt lat="43.69691" lon="1.47973">
        <ele>211</ele>
        <time>2016-01-25T02:09:31Z</time>
      </trkpt>
      <trkpt lat="43.69705" lon="1.47984">
        <ele>211</ele>
        <time>2016-01-25T02:11:31Z</time>
      </trkpt>
      <trkpt lat="43.69715" lon="1.47993">
        <ele>211</ele>
        <time>2016-01-25T02:13:31Z</time>
      </trkpt>
      <trkpt lat="43.69724" lon="1.47999">
        <ele>211</ele>
        <time>2016-01-25T02:15:31Z</time>
      </trkpt>
      <trkpt lat="43.69733" lon="1.48006">
        <ele>211</ele>
        <time>2016-01-25T02:17:31Z</time>
      </trkpt>
      <trkpt lat="43.69737" lon="1.48011">
        <ele>211</ele>
        <time>2016-01-25T02:19:31Z</time>
      </trkpt>
      <trkpt lat="43.6974" lon="1.48016">
        <ele>211</ele>
        <time>2016-01-25T02:21:31Z</time>
      </trkpt>
      <trkpt lat="43.69743" lon="1.48022">
        <ele>211</ele>
        <time>2016-01-25T02:23:31Z</time>
      </trkpt>
      <trkpt lat="43.69752" lon="1.48047">
        <ele>211</ele>
        <time>2016-01-25T02:25:31Z</time>
      </trkpt>
      <trkpt lat="43.69757" lon="1.48066">
        <ele>211</ele>
        <time>2016-01-25T02:27:31Z</time>
      </trkpt>
      <trkpt lat="43.69759" lon="1.48073">
        <ele>211</ele>
        <time>2016-01-25T02:29:31Z</time>
      </trkpt>
      <trkpt lat="43.69761" lon="1.48082">
        <ele>211</ele>
        <time>2016-01-25T02:31:31Z</time>
      </trkpt>
      <trkpt lat="43.69763" lon="1.48093">
        <ele>211</ele>
        <time>2016-01-25T02:33:31Z</time>
      </trkpt>
      <trkpt lat="43.69764" lon="1.48104">
        <ele>211</ele>
        <time>2016-01-25T02:35:31Z</time>
      </trkpt>
      <trkpt lat="43.69764" lon="1.48114">
        <ele>211</ele>
        <time>2016-01-25T02:37:31Z</time>
      </trkpt>
      <trkpt lat="43.69764" lon="1.48122">
        <ele>211</ele>
        <time>2016-01-25T02:39:31Z</time>
      </trkpt>
      <trkpt lat="43.69753" lon="1.48235">
        <ele>210</ele>
        <time>2016-01-25T02:41:31Z</time>
      </trkpt>
      <trkpt lat="43.69751" lon="1.48246">
        <ele>210</ele>
        <time>2016-01-25T02:43:31Z</time>
      </trkpt>
      <trkpt lat="43.69751" lon="1.48255">
        <ele>210</ele>
        <time>2016-01-25T02:45:31Z</time>
      </trkpt>
      <trkpt lat="43.6975" lon="1.48262">
        <ele>209</ele>
        <time>2016-01-25T02:47:31Z</time>
      </trkpt>
      <trkpt lat="43.69751" lon="1.48266">
        <ele>209</ele>
        <time>2016-01-25T02:49:31Z</time>
      </trkpt>
      <trkpt lat="43.69751" lon="1.48272">
        <ele>209</ele>
        <time>2016-01-25T02:51:31Z</time>
      </trkpt>
      <trkpt lat="43.69752" lon="1.48283">
        <ele>208</ele>
        <time>2016-01-25T02:53:31Z</time>
      </trkpt>
      <trkpt lat="43.69753" lon="1.48288">
        <ele>208</ele>
        <time>2016-01-25T02:55:31Z</time>
      </trkpt>
      <trkpt lat="43.69753" lon="1.48292">
        <ele>208</ele>
        <time>2016-01-25T02:57:31Z</time>
      </trkpt>
      <trkpt lat="43.69753" lon="1.48297">
        <ele>208</ele>
        <time>2016-01-25T02:59:31Z</time>
      </trkpt>
      <trkpt lat="43.69753" lon="1.483">
        <ele>207</ele>
        <time>2016-01-25T03:01:31Z</time>
      </trkpt>
      <trkpt lat="43.69752" lon="1.48302">
        <ele>207</ele>
        <time>2016-01-25T03:03:31Z</time>
      </trkpt>
      <trkpt lat="43.69752" lon="1.48305">
        <ele>207</ele>
        <time>2016-01-25T03:05:31Z</time>
      </trkpt>
      <trkpt lat="43.69751" lon="1.4831">
        <ele>207</ele>
        <time>2016-01-25T03:07:31Z</time>
      </trkpt>
      <trkpt lat="43.69749" lon="1.48314">
        <ele>207</ele>
        <time>2016-01-25T03:09:31Z</time>
      </trkpt>
      <trkpt lat="43.69733" lon="1.48342">
        <ele>206</ele>
        <time>2016-01-25T03:11:31Z</time>
      </trkpt>
      <trkpt lat="43.69709" lon="1.48377">
        <ele>206</ele>
        <time>2016-01-25T03:13:31Z</time>
      </trkpt>
      <trkpt lat="43.69699" lon="1.48394">
        <ele>207</ele>
        <time>2016-01-25T03:15:31Z</time>
      </trkpt>
      <trkpt lat="43.69692" lon="1.48408">
        <ele>207</ele>
        <time>2016-01-25T03:17:31Z</time>
      </trkpt>
      <trkpt lat="43.69688" lon="1.48417">
        <ele>207</ele>
        <time>2016-01-25T03:19:31Z</time>
      </trkpt>
      <trkpt lat="43.69685" lon="1.48426">
        <ele>207</ele>
        <time>2016-01-25T03:21:31Z</time>
      </trkpt>
      <trkpt lat="43.69681" lon="1.48437">
        <ele>208</ele>
        <time>2016-01-25T03:23:31Z</time>
      </trkpt>
      <trkpt lat="43.69679" lon="1.48448">
        <ele>208</ele>
        <time>2016-01-25T03:25:31Z</time>
      </trkpt>
      <trkpt lat="43.69678" lon="1.48457">
        <ele>208</ele>
        <time>2016-01-25T03:27:31Z</time>
      </trkpt>
      <trkpt lat="43.69677" lon="1.4847">
        <ele>208</ele>
        <time>2016-01-25T03:29:31Z</time>
      </trkpt>
      <trkpt lat="43.69676" lon="1.48486">
        <ele>208</ele>
        <time>2016-01-25T03:31:31Z</time>
      </trkpt>
      <trkpt lat="43.69675" lon="1.48541">
        <ele>207</ele>
        <time>2016-01-25T03:33:31Z</time>
      </trkpt>
      <trkpt lat="43.69674" lon="1.48573">
        <ele>207</ele>
        <time>2016-01-25T03:35:31Z</time>
      </trkpt>
      <trkpt lat="43.6967" lon="1.48658">
        <ele>206</ele>
        <time>2016-01-25T03:37:31Z</time>
      </trkpt>
      <trkpt lat="43.69667" lon="1.48724">
        <ele>205</ele>
        <time>2016-01-25T03:39:31Z</time>
      </trkpt>
      <trkpt lat="43.69667" lon="1.48728">
        <ele>205</ele>
        <time>2016-01-25T03:41:31Z</time>
      </trkpt>
      <trkpt lat="43.69664" lon="1.48807">
        <ele>203</ele>
        <time>2016-01-25T03:43:31Z</time>
      </trkpt>
      <trkpt lat="43.69663" lon="1.4882">
        <ele>203</ele>
        <time>2016-01-25T03:45:31Z</time>
      </trkpt>
      <trkpt lat="43.69661" lon="1.48831">
        <ele>203</ele>
        <time>2016-01-25T03:47:31Z</time>
      </trkpt>
      <trkpt lat="43.6966" lon="1.48841">
        <ele>203</ele>
        <time>2016-01-25T03:49:31Z</time>
      </trkpt>
      <trkpt lat="43.69658" lon="1.4885">
        <ele>203</ele>
        <time>2016-01-25T03:51:31Z</time>
      </trkpt>
      <trkpt lat="43.69656" lon="1.48859">
        <ele>203</ele>
        <time>2016-01-25T03:53:31Z</time>
      </trkpt>
      <trkpt lat="43.69653" lon="1.48869">
        <ele>203</ele>
        <time>2016-01-25T03:55:31Z</time>
      </trkpt>
      <trkpt lat="43.69648" lon="1.48882">
        <ele>203</ele>
        <time>2016-01-25T03:57:31Z</time>
      </trkpt>
      <trkpt lat="43.69632" lon="1.48929">
        <ele>203</ele>
        <time>2016-01-25T03:59:31Z</time>
      </trkpt>
      <trkpt lat="43.6962" lon="1.48963">
        <ele>203</ele>
        <time>2016-01-25T04:01:31Z</time>
      </trkpt>
      <trkpt lat="43.69606" lon="1.4901">
        <ele>202</ele>
        <time>2016-01-25T04:03:31Z</time>
      </trkpt>
      <trkpt lat="43.69596" lon="1.49042">
        <ele>202</ele>
        <time>2016-01-25T04:05:31Z</time>
      </trkpt>
      <trkpt lat="43.69589" lon="1.49062">
        <ele>202</ele>
        <time>2016-01-25T04:07:31Z</time>
      </trkpt>
      <trkpt lat="43.69577" lon="1.49094">
        <ele>202</ele>
        <time>2016-01-25T04:09:31Z</time>
      </trkpt>
      <trkpt lat="43.6957" lon="1.49112">
        <ele>203</ele>
        <time>2016-01-25T04:11:31Z</time>
      </trkpt>
      <trkpt lat="43.69566" lon="1.49121">
        <ele>203</ele>
        <time>2016-01-25T04:13:31Z</time>
      </trkpt>
      <trkpt lat="43.69562" lon="1.4913">
        <ele>203</ele>
        <time>2016-01-25T04:15:31Z</time>
      </trkpt>
      <trkpt lat="43.69557" lon="1.49139">
        <ele>203</ele>
        <time>2016-01-25T04:17:31Z</time>
      </trkpt>
      <trkpt lat="43.6955" lon="1.49148">
        <ele>203</ele>
        <time>2016-01-25T04:19:31Z</time>
      </trkpt>
      <trkpt lat="43.69545" lon="1.49156">
        <ele>203</ele>
        <time>2016-01-25T04:21:31Z</time>
      </trkpt>
      <trkpt lat="43.69539" lon="1.49163">
        <ele>204</ele>
        <time>2016-01-25T04:23:31Z</time>
      </trkpt>
      <trkpt lat="43.69528" lon="1.49176">
        <ele>204</ele>
        <time>2016-01-25T04:25:31Z</time>
      </trkpt>
      <trkpt lat="43.69519" lon="1.49186">
        <ele>204</ele>
        <time>2016-01-25T04:27:31Z</time>
      </trkpt>
      <trkpt lat="43.69503" lon="1.49202">
        <ele>204</ele>
        <time>2016-01-25T04:29:31Z</time>
      </trkpt>
      <trkpt lat="43.69494" lon="1.49213">
        <ele>205</ele>
        <time>2016-01-25T04:31:31Z</time>
      </trkpt>
      <trkpt lat="43.69482" lon="1.49224">
        <ele>205</ele>
        <time>2016-01-25T04:33:31Z</time>
      </trkpt>
      <trkpt lat="43.6947" lon="1.49236">
        <ele>205</ele>
        <time>2016-01-25T04:35:31Z</time>
      </trkpt>
      <trkpt lat="43.69449" lon="1.49257">
        <ele>204</ele>
        <time>2016-01-25T04:37:31Z</time>
      </trkpt>
      <trkpt lat="43.6944" lon="1.49268">
        <ele>204</ele>
        <time>2016-01-25T04:39:31Z</time>
      </trkpt>
      <trkpt lat="43.69431" lon="1.49277">
        <ele>204</ele>
        <time>2016-01-25T04:41:31Z</time>
      </trkpt>
      <trkpt lat="43.69431" lon="1.49277">
        <ele>204</ele>
        <time>2016-01-25T04:43:31Z</time>
      </trkpt>
      <trkpt lat="43.69428" lon="1.49274">
        <ele>204</ele>
        <time>2016-01-25T04:45:31Z</time>
      </trkpt>
      <trkpt lat="43.69401" lon="1.49229">
        <ele>206</ele>
        <time>2016-01-25T04:47:31Z</time>
      </trkpt>
      <trkpt lat="43.69335" lon="1.49117">
        <ele>209</ele>
        <time>2016-01-25T04:49:31Z</time>
      </trkpt>
      <trkpt lat="43.69319" lon="1.49091">
        <ele>211</ele>
        <time>2016-01-25T04:51:31Z</time>
      </trkpt>
      <trkpt lat="43.69314" lon="1.49083">
        <ele>211</ele>
        <time>2016-01-25T04:53:31Z</time>
      </trkpt>
      <trkpt lat="43.6931" lon="1.49078">
        <ele>211</ele>
        <time>2016-01-25T04:55:31Z</time>
      </trkpt>
      <trkpt lat="43.69306" lon="1.49072">
        <ele>212</ele>
        <time>2016-01-25T04:57:31Z</time>
      </trkpt>
      <trkpt lat="43.69298" lon="1.49062">
        <ele>212</ele>
        <time>2016-01-25T04:59:31Z</time>
      </trkpt>
      <trkpt lat="43.69285" lon="1.49048">
        <ele>213</ele>
        <time>2016-01-25T05:01:31Z</time>
      </trkpt>
      <trkpt lat="43.69273" lon="1.49033">
        <ele>214</ele>
        <time>2016-01-25T05:03:31Z</time>
      </trkpt>
      <trkpt lat="43.69264" lon="1.49024">
        <ele>215</ele>
        <time>2016-01-25T05:05:31Z</time>
      </trkpt>
      <trkpt lat="43.69218" lon="1.48974">
        <ele>216</ele>
        <time>2016-01-25T05:07:31Z</time>
      </trkpt>
      <trkpt lat="43.69215" lon="1.4897">
        <ele>215</ele>
        <time>2016-01-25T05:09:31Z</time>
      </trkpt>
      <trkpt lat="43.692" lon="1.48951">
        <ele>215</ele>
        <time>2016-01-25T05:11:31Z</time>
      </trkpt>
      <trkpt lat="43.69169" lon="1.4891">
        <ele>214</ele>
        <time>2016-01-25T05:13:31Z</time>
      </trkpt>
      <trkpt lat="43.69107" lon="1.48828">
        <ele>207</ele>
        <time>2016-01-25T05:15:31Z</time>
      </trkpt>
      <trkpt lat="43.69061" lon="1.48767">
        <ele>203</ele>
        <time>2016-01-25T05:17:31Z</time>
      </trkpt>
      <trkpt lat="43.69051" lon="1.48755">
        <ele>203</ele>
        <time>2016-01-25T05:19:31Z</time>
      </trkpt>
      <trkpt lat="43.69051" lon="1.48755">
        <ele>203</ele>
        <time>2016-01-25T05:21:31Z</time>
      </trkpt>
      <trkpt lat="43.69029" lon="1.48726">
        <ele>202</ele>
        <time>2016-01-25T05:23:31Z</time>
      </trkpt>
      <trkpt lat="43.69024" lon="1.48719">
        <ele>202</ele>
        <time>2016-01-25T05:25:31Z</time>
      </trkpt>
      <trkpt lat="43.6902" lon="1.48712">
        <ele>202</ele>
        <time>2016-01-25T05:27:31Z</time>
      </trkpt>
      <trkpt lat="43.6902" lon="1.48712">
        <ele>202</ele>
        <time>2016-01-25T05:29:31Z</time>
      </trkpt>
      <trkpt lat="43.69106" lon="1.48678">
        <ele>204</ele>
        <time>2016-01-25T05:31:31Z</time>
      </trkpt>
      <trkpt lat="43.69113" lon="1.48675">
        <ele>204</ele>
        <time>2016-01-25T05:33:31Z</time>
      </trkpt>
      <trkpt lat="43.69118" lon="1.48672">
        <ele>204</ele>
        <time>2016-01-25T05:35:31Z</time>
      </trkpt>
      <trkpt lat="43.69122" lon="1.48671">
        <ele>204</ele>
        <time>2016-01-25T05:37:31Z</time>
      </trkpt>
      <trkpt lat="43.69126" lon="1.48669">
        <ele>205</ele>
        <time>2016-01-25T05:39:31Z</time>
      </trkpt>
      <trkpt lat="43.6913" lon="1.48666">
        <ele>205</ele>
        <time>2016-01-25T05:41:31Z</time>
      </trkpt>
      <trkpt lat="43.69135" lon="1.48662">
        <ele>205</ele>
        <time>2016-01-25T05:43:31Z</time>
      </trkpt>
      <trkpt lat="43.69139" lon="1.48658">
        <ele>205</ele>
        <time>2016-01-25T05:45:31Z</time>
      </trkpt>
      <trkpt lat="43.69143" lon="1.48653">
        <ele>205</ele>
        <time>2016-01-25T05:47:31Z</time>
      </trkpt>
      <trkpt lat="43.69146" lon="1.48649">
        <ele>205</ele>
        <time>2016-01-25T05:49:31Z</time>
      </trkpt>
      <trkpt lat="43.69148" lon="1.48646">
        <ele>205</ele>
        <time>2016-01-25T05:51:31Z</time>
      </trkpt>
      <trkpt lat="43.6915" lon="1.48643">
        <ele>205</ele>
        <time>2016-01-25T05:53:31Z</time>
      </trkpt>
      <trkpt lat="43.69158" lon="1.48629">
        <ele>205</ele>
        <time>2016-01-25T05:55:31Z</time>
      </trkpt>
      <trkpt lat="43.69158" lon="1.48628">
        <ele>205</ele>
        <time>2016-01-25T05:57:31Z</time>
      </trkpt>
      <trkpt lat="43.69185" lon="1.4858">
        <ele>205</ele>
        <time>2016-01-25T05:59:31Z</time>
      </trkpt>
      <trkpt lat="43.69204" lon="1.48548">
        <ele>204</ele>
        <time>2016-01-25T06:01:31Z</time>
      </trkpt>
      <trkpt lat="43.69215" lon="1.48531">
        <ele>204</ele>
        <time>2016-01-25T06:03:31Z</time>
      </trkpt>
      <trkpt lat="43.69227" lon="1.48513">
        <ele>203</ele>
        <time>2016-01-25T06:05:31Z</time>
      </trkpt>
      <trkpt lat="43.69261" lon="1.48463">
        <ele>202</ele>
        <time>2016-01-25T06:07:31Z</time>
      </trkpt>
      <trkpt lat="43.6928" lon="1.48436">
        <ele>201</ele>
        <time>2016-01-25T06:09:31Z</time>
      </trkpt>
      <trkpt lat="43.69323" lon="1.48378">
        <ele>199</ele>
        <time>2016-01-25T06:11:31Z</time>
      </trkpt>
      <trkpt lat="43.69323" lon="1.48378">
        <ele>199</ele>
        <time>2016-01-25T06:13:31Z</time>
      </trkpt>
      <trkpt lat="43.69324" lon="1.48374">
        <ele>199</ele>
        <time>2016-01-25T06:15:31Z</time>
      </trkpt>
      <trkpt lat="43.69337" lon="1.48354">
        <ele>198</ele>
        <time>2016-01-25T06:17:31Z</time>
      </trkpt>
      <trkpt lat="43.69337" lon="1.48352">
        <ele>198</ele>
        <time>2016-01-25T06:19:31Z</time>
      </trkpt>
      <trkpt lat="43.69338" lon="1.4835">
        <ele>198</ele>
        <time>2016-01-25T06:21:31Z</time>
      </trkpt>
      <trkpt lat="43.69338" lon="1.48348">
        <ele>198</ele>
        <time>2016-01-25T06:23:31Z</time>
      </trkpt>
      <trkpt lat="43.69339" lon="1.48346">
        <ele>198</ele>
        <time>2016-01-25T06:25:31Z</time>
      </trkpt>
      <trkpt lat="43.6934" lon="1.48345">
        <ele>198</ele>
        <time>2016-01-25T06:27:31Z</time>
      </trkpt>
      <trkpt lat="43.6934" lon="1.48344">
        <ele>198</ele>
        <time>2016-01-25T06:29:31Z</time>
      </trkpt>
      <trkpt lat="43.69341" lon="1.48343">
        <ele>198</ele>
        <time>2016-01-25T06:31:31Z</time>
      </trkpt>
      <trkpt lat="43.69342" lon="1.48342">
        <ele>198</ele>
        <time>2016-01-25T06:33:31Z</time>
      </trkpt>
      <trkpt lat="43.69343" lon="1.48342">
        <ele>198</ele>
        <time>2016-01-25T06:35:31Z</time>
      </trkpt>
      <trkpt lat="43.69345" lon="1.48341">
        <ele>198</ele>
        <time>2016-01-25T06:37:31Z</time>
      </trkpt>
      <trkpt lat="43.69346" lon="1.48341">
        <ele>198</ele>
        <time>2016-01-25T06:39:31Z</time>
      </trkpt>
      <trkpt lat="43.69348" lon="1.48341">
        <ele>198</ele>
        <time>2016-01-25T06:41:31Z</time>
      </trkpt>
      <trkpt lat="43.69351" lon="1.48338">
        <ele>197</ele>
        <time>2016-01-25T06:43:31Z</time>
      </trkpt>
      <trkpt lat="43.69357" lon="1.48331">
        <ele>197</ele>
        <time>2016-01-25T06:45:31Z</time>
      </trkpt>
      <trkpt lat="43.6936" lon="1.48329">
        <ele>197</ele>
        <time>2016-01-25T06:47:31Z</time>
      </trkpt>
      <trkpt lat="43.69391" lon="1.48289">
        <ele>197</ele>
        <time>2016-01-25T06:49:31Z</time>
      </trkpt>
      <trkpt lat="43.69466" lon="1.48192">
        <ele>201</ele>
        <time>2016-01-25T06:51:31Z</time>
      </trkpt>
      <trkpt lat="43.69494" lon="1.48156">
        <ele>202</ele>
        <time>2016-01-25T06:53:31Z</time>
      </trkpt>
      <trkpt lat="43.69501" lon="1.48146">
        <ele>202</ele>
        <time>2016-01-25T06:55:31Z</time>
      </trkpt>
      <trkpt lat="43.69504" lon="1.48142">
        <ele>203</ele>
        <time>2016-01-25T06:57:31Z</time>
      </trkpt>
      <trkpt lat="43.69531" lon="1.48108">
        <ele>204</ele>
        <time>2016-01-25T06:59:31Z</time>
      </trkpt>
      <trkpt lat="43.69543" lon="1.48088">
        <ele>205</ele>
        <time>2016-01-25T07:01:31Z</time>
      </trkpt>
      <trkpt lat="43.6955" lon="1.48076">
        <ele>205</ele>
        <time>2016-01-25T07:03:31Z</time>
      </trkpt>
      <trkpt lat="43.69556" lon="1.48062">
        <ele>206</ele>
        <time>2016-01-25T07:05:31Z</time>
      </trkpt>
      <trkpt lat="43.69564" lon="1.48041">
        <ele>207</ele>
        <time>2016-01-25T07:07:31Z</time>
      </trkpt>
      <trkpt lat="43.69578" lon="1.47982">
        <ele>210</ele>
        <time>2016-01-25T07:09:31Z</time>
      </trkpt>
      <trkpt lat="43.6958" lon="1.4797">
        <ele>211</ele>
        <time>2016-01-25T07:11:31Z</time>
      </trkpt>
      <trkpt lat="43.69585" lon="1.47963">
        <ele>211</ele>
        <time>2016-01-25T07:13:31Z</time>
      </trkpt>
      <trkpt lat="43.69599" lon="1.47945">
        <ele>211</ele>
        <time>2016-01-25T07:15:31Z</time>
      </trkpt>
      <trkpt lat="43.69603" lon="1.47939">
        <ele>211</ele>
        <time>2016-01-25T07:17:31Z</time>
      </trkpt>
      <trkpt lat="43.69605" lon="1.47933">
        <ele>211</ele>
        <time>2016-01-25T07:19:31Z</time>
      </trkpt>
      <trkpt lat="43.69605" lon="1.47933">
        <ele>211</ele>
        <time>2016-01-25T07:21:31Z</time>
      </trkpt>
      <trkpt lat="43.69606" lon="1.4793">
        <ele>211</ele>
        <time>2016-01-25T07:23:31Z</time>
      </trkpt>
      <trkpt lat="43.69607" lon="1.47922">
        <ele>212</ele>
        <time>2016-01-25T07:25:31Z</time>
      </trkpt>
      <trkpt lat="43.69608" lon="1.47911">
        <ele>212</ele>
        <time>2016-01-25T07:27:31Z</time>
      </trkpt>
      <trkpt lat="43.69611" lon="1.47871">
        <ele>212</ele>
        <time>2016-01-25T07:29:31Z</time>
      </trkpt>
      <trkpt lat="43.69612" lon="1.47856">
        <ele>212</ele>
        <time>2016-01-25T07:31:31Z</time>
      </trkpt>
      <trkpt lat="43.69615" lon="1.47843">
        <ele>212</ele>
        <time>2016-01-25T07:33:31Z</time>
      </trkpt>
      <trkpt lat="43.69619" lon="1.4783">
        <ele>212</ele>
        <time>2016-01-25T07:35:31Z</time>
      </trkpt>
      <trkpt lat="43.69628" lon="1.47801">
        <ele>211</ele>
        <time>2016-01-25T07:37:31Z</time>
      </trkpt>
      <trkpt lat="43.69635" lon="1.47782">
        <ele>212</ele>
        <time>2016-01-25T07:39:31Z</time>
      </trkpt>
      <trkpt lat="43.69641" lon="1.47766">
        <ele>212</ele>
        <time>2016-01-25T07:41:31Z</time>
      </trkpt>
      <trkpt lat="43.69647" lon="1.47752">
        <ele>212</ele>
        <time>2016-01-25T07:43:31Z</time>
      </trkpt>
      <trkpt lat="43.69647" lon="1.47752">
        <ele>212</ele>
        <time>2016-01-25T07:45:31Z</time>
      </trkpt>
      <trkpt lat="43.69636" lon="1.47729">
        <ele>211</ele>
        <time>2016-01-25T07:47:31Z</time>
      </trkpt>
      <trkpt lat="43.69631" lon="1.47717">
        <ele>211</ele>
        <time>2016-01-25T07:49:31Z</time>
      </trkpt>
      <trkpt lat="43.69624" lon="1.47698">
        <ele>211</ele>
        <time>2016-01-25T07:51:31Z</time>
      </trkpt>
      <trkpt lat="43.69618" lon="1.47682">
        <ele>211</ele>
        <time>2016-01-25T07:53:31Z</time>
      </trkpt>
      <trkpt lat="43.69599" lon="1.47634">
        <ele>210</ele>
        <time>2016-01-25T07:55:31Z</time>
      </trkpt>
      <trkpt lat="43.69592" lon="1.47612">
        <ele>210</ele>
        <time>2016-01-25T07:57:31Z</time>
      </trkpt>
      <trkpt lat="43.69588" lon="1.47598">
        <ele>210</ele>
        <time>2016-01-25T07:59:31Z</time>
      </trkpt>
      <trkpt lat="43.69587" lon="1.47587">
        <ele>210</ele>
        <time>2016-01-25T08:01:31Z</time>
      </trkpt>
      <trkpt lat="43.69584" lon="1.47566">
        <ele>210</ele>
        <time>2016-01-25T08:03:31Z</time>
      </trkpt>
      <trkpt lat="43.69582" lon="1.47558">
        <ele>210</ele>
        <time>2016-01-25T08:05:31Z</time>
      </trkpt>
      <trkpt lat="43.69579" lon="1.47552">
        <ele>210</ele>
        <time>2016-01-25T08:07:31Z</time>
      </trkpt>
      <trkpt lat="43.69577" lon="1.47548">
        <ele>210</ele>
        <time>2016-01-25T08:09:31Z</time>
      </trkpt>
      <trkpt lat="43.69575" lon="1.47544">
        <ele>210</ele>
        <time>2016-01-25T08:11:31Z</time>
      </trkpt>
      <trkpt lat="43.69572" lon="1.47539">
        <ele>210</ele>
        <time>2016-01-25T08:13:31Z</time>
      </trkpt>
      <trkpt lat="43.69568" lon="1.47534">
        <ele>210</ele>
        <time>2016-01-25T08:15:31Z</time>
      </trkpt>
      <trkpt lat="43.69563" lon="1.47529">
        <ele>210</ele>
        <time>2016-01-25T08:17:31Z</time>
      </trkpt>
      <trkpt lat="43.69543" lon="1.47511">
        <ele>209</ele>
        <time>2016-01-25T08:19:31Z</time>
      </trkpt>
      <trkpt lat="43.6954" lon="1.47508">
        <ele>209</ele>
        <time>2016-01-25T08:21:31Z</time>
      </trkpt>
      <trkpt lat="43.6952" lon="1.47489">
        <ele>208</ele>
        <time>2016-01-25T08:23:31Z</time>
      </trkpt>
      <trkpt lat="43.69507" lon="1.47476">
        <ele>208</ele>
        <time>2016-01-25T08:25:31Z</time>
      </trkpt>
      <trkpt lat="43.69501" lon="1.47468">
        <ele>208</ele>
        <time>2016-01-25T08:27:31Z</time>
      </trkpt>
      <trkpt lat="43.695" lon="1.47464">
        <ele>208</ele>
        <time>2016-01-25T08:29:31Z</time>
      </trkpt>
      <trkpt lat="43.69497" lon="1.47455">
        <ele>208</ele>
        <time>2016-01-25T08:31:31Z</time>
      </trkpt>
      <trkpt lat="43.69496" lon="1.47448">
        <ele>208</ele>
        <time>2016-01-25T08:33:31Z</time>
      </trkpt>
      <trkpt lat="43.69496" lon="1.4744">
        <ele>208</ele>
        <time>2016-01-25T08:35:31Z</time>
      </trkpt>
      <trkpt lat="43.69499" lon="1.47423">
        <ele>209</ele>
        <time>2016-01-25T08:37:31Z</time>
      </trkpt>
      <trkpt lat="43.69506" lon="1.47389">
        <ele>210</ele>
        <time>2016-01-25T08:39:31Z</time>
      </trkpt>
      <trkpt lat="43.6951" lon="1.47369">
        <ele>210</ele>
        <time>2016-01-25T08:41:31Z</time>
      </trkpt>
      <trkpt lat="43.69516" lon="1.4734">
        <ele>211</ele>
        <time>2016-01-25T08:43:31Z</time>
      </trkpt>
      <trkpt lat="43.69543" lon="1.47217">
        <ele>209</ele>
        <time>2016-01-25T08:45:31Z</time>
      </trkpt>
      <trkpt lat="43.69546" lon="1.47202">
        <ele>209</ele>
        <time>2016-01-25T08:47:31Z</time>
      </trkpt>
      <trkpt lat="43.69549" lon="1.4719">
        <ele>210</ele>
        <time>2016-01-25T08:49:31Z</time>
      </trkpt>
      <trkpt lat="43.69551" lon="1.47184">
        <ele>210</ele>
        <time>2016-01-25T08:51:31Z</time>
      </trkpt>
      <trkpt lat="43.69551" lon="1.47179">
        <ele>210</ele>
        <time>2016-01-25T08:53:31Z</time>
      </trkpt>
      <trkpt lat="43.69551" lon="1.47175">
        <ele>210</ele>
        <time>2016-01-25T08:55:31Z</time>
      </trkpt>
      <trkpt lat="43.6955" lon="1.47169">
        <ele>210</ele>
        <time>2016-01-25T08:57:31Z</time>
      </trkpt>
      <trkpt lat="43.69549" lon="1.47165">
        <ele>210</ele>
        <time>2016-01-25T08:59:31Z</time>
      </trkpt>
      <trkpt lat="43.69547" lon="1.4716">
        <ele>210</ele>
        <time>2016-01-25T09:01:31Z</time>
      </trkpt>
      <trkpt lat="43.69544" lon="1.47154">
        <ele>209</ele>
        <time>2016-01-25T09:03:31Z</time>
      </trkpt>
      <trkpt lat="43.69542" lon="1.47149">
        <ele>209</ele>
        <time>2016-01-25T09:05:31Z</time>
      </trkpt>
      <trkpt lat="43.69538" lon="1.47145">
        <ele>209</ele>
        <time>2016-01-25T09:07:31Z</time>
      </trkpt>
      <trkpt lat="43.69535" lon="1.47141">
        <ele>209</ele>
        <time>2016-01-25T09:09:31Z</time>
      </trkpt>
      <trkpt lat="43.69531" lon="1.47137">
        <ele>209</ele>
        <time>2016-01-25T09:11:31Z</time>
      </trkpt>
      <trkpt lat="43.69503" lon="1.47117">
        <ele>208</ele>
        <time>2016-01-25T09:13:31Z</time>
      </trkpt>
      <trkpt lat="43.69479" lon="1.471">
        <ele>206</ele>
        <time>2016-01-25T09:15:31Z</time>
      </trkpt>
      <trkpt lat="43.69464" lon="1.47088">
        <ele>205</ele>
        <time>2016-01-25T09:17:31Z</time>
      </trkpt>
      <trkpt lat="43.69422" lon="1.47052">
        <ele>203</ele>
        <time>2016-01-25T09:19:31Z</time>
      </trkpt>
      <trkpt lat="43.69417" lon="1.47047">
        <ele>203</ele>
        <time>2016-01-25T09:21:31Z</time>
      </trkpt>
      <trkpt lat="43.69415" lon="1.47045">
        <ele>203</ele>
        <time>2016-01-25T09:23:31Z</time>
      </trkpt>
      <trkpt lat="43.69394" lon="1.47024">
        <ele>202</ele>
        <time>2016-01-25T09:25:31Z</time>
      </trkpt>
      <trkpt lat="43.69386" lon="1.47014">
        <ele>202</ele>
        <time>2016-01-25T09:27:31Z</time>
      </trkpt>
      <trkpt lat="43.69383" lon="1.47009">
        <ele>203</ele>
        <time>2016-01-25T09:29:31Z</time>
      </trkpt>
      <trkpt lat="43.6938" lon="1.47004">
        <ele>203</ele>
        <time>2016-01-25T09:31:31Z</time>
      </trkpt>
      <trkpt lat="43.69377" lon="1.46998">
        <ele>203</ele>
        <time>2016-01-25T09:33:31Z</time>
      </trkpt>
      <trkpt lat="43.69374" lon="1.46991">
        <ele>202</ele>
        <time>2016-01-25T09:35:31Z</time>
      </trkpt>
      <trkpt lat="43.69371" lon="1.4698">
        <ele>202</ele>
        <time>2016-01-25T09:37:31Z</time>
      </trkpt>
      <trkpt lat="43.69369" lon="1.46971">
        <ele>202</ele>
        <time>2016-01-25T09:39:31Z</time>
      </trkpt>
      <trkpt lat="43.69368" lon="1.46964">
        <ele>202</ele>
        <time>2016-01-25T09:41:31Z</time>
      </trkpt>
      <trkpt lat="43.69367" lon="1.46957">
        <ele>202</ele>
        <time>2016-01-25T09:43:31Z</time>
      </trkpt>
      <trkpt lat="43.69366" lon="1.4695">
        <ele>201</ele>
        <time>2016-01-25T09:45:31Z</time>
      </trkpt>
      <trkpt lat="43.69366" lon="1.46934">
        <ele>201</ele>
        <time>2016-01-25T09:47:31Z</time>
      </trkpt>
      <trkpt lat="43.69366" lon="1.46917">
        <ele>201</ele>
        <time>2016-01-25T09:49:31Z</time>
      </trkpt>
      <trkpt lat="43.69367" lon="1.46888">
        <ele>201</ele>
        <time>2016-01-25T09:51:31Z</time>
      </trkpt>
      <trkpt lat="43.69368" lon="1.46869">
        <ele>201</ele>
        <time>2016-01-25T09:53:31Z</time>
      </trkpt>
      <trkpt lat="43.69367" lon="1.46853">
        <ele>201</ele>
        <time>2016-01-25T09:55:31Z</time>
      </trkpt>
      <trkpt lat="43.69365" lon="1.46753">
        <ele>200</ele>
        <time>2016-01-25T09:57:31Z</time>
      </trkpt>
      <trkpt lat="43.69367" lon="1.46716">
        <ele>200</ele>
        <time>2016-01-25T09:59:31Z</time>
      </trkpt>
      <trkpt lat="43.69369" lon="1.46682">
        <ele>200</ele>
        <time>2016-01-25T10:01:31Z</time>
      </trkpt>
      <trkpt lat="43.69373" lon="1.46657">
        <ele>201</ele>
        <time>2016-01-25T10:03:31Z</time>
      </trkpt>
      <trkpt lat="43.69377" lon="1.46633">
        <ele>200</ele>
        <time>2016-01-25T10:05:31Z</time>
      </trkpt>
      <trkpt lat="43.69384" lon="1.466">
        <ele>200</ele>
        <time>2016-01-25T10:07:31Z</time>
      </trkpt>
      <trkpt lat="43.69404" lon="1.46525">
        <ele>198</ele>
        <time>2016-01-25T10:09:31Z</time>
      </trkpt>
      <trkpt lat="43.69413" lon="1.46488">
        <ele>197</ele>
        <time>2016-01-25T10:11:31Z</time>
      </trkpt>
      <trkpt lat="43.69416" lon="1.46473">
        <ele>197</ele>
        <time>2016-01-25T10:13:31Z</time>
      </trkpt>
      <trkpt lat="43.69418" lon="1.46458">
        <ele>197</ele>
        <time>2016-01-25T10:15:31Z</time>
      </trkpt>
      <trkpt lat="43.69419" lon="1.46451">
        <ele>198</ele>
        <time>2016-01-25T10:17:31Z</time>
      </trkpt>
      <trkpt lat="43.69419" lon="1.46442">
        <ele>198</ele>
        <time>2016-01-25T10:19:31Z</time>
      </trkpt>
      <trkpt lat="43.69419" lon="1.46431">
        <ele>198</ele>
        <time>2016-01-25T10:21:31Z</time>
      </trkpt>
      <trkpt lat="43.69418" lon="1.46424">
        <ele>198</ele>
        <time>2016-01-25T10:23:31Z</time>
      </trkpt>
      <trkpt lat="43.69417" lon="1.46419">
        <ele>198</ele>
        <time>2016-01-25T10:25:31Z</time>
      </trkpt>
      <trkpt lat="43.69417" lon="1.46419">
        <ele>198</ele>
        <time>2016-01-25T10:27:31Z</time>
      </trkpt>
      <trkpt lat="43.6942" lon="1.46414">
        <ele>198</ele>
        <time>2016-01-25T10:29:31Z</time>
      </trkpt>
      <trkpt lat="43.69425" lon="1.46406">
        <ele>198</ele>
        <time>2016-01-25T10:31:31Z</time>
      </trkpt>
      <trkpt lat="43.6943" lon="1.46401">
        <ele>198</ele>
        <time>2016-01-25T10:33:31Z</time>
      </trkpt>
      <trkpt lat="43.69434" lon="1.46399">
        <ele>198</ele>
        <time>2016-01-25T10:35:31Z</time>
      </trkpt>
      <trkpt lat="43.69439" lon="1.46397">
        <ele>197</ele>
        <time>2016-01-25T10:37:31Z</time>
      </trkpt>
      <trkpt lat="43.69444" lon="1.46397">
        <ele>197</ele>
        <time>2016-01-25T10:39:31Z</time>
      </trkpt>
      <trkpt lat="43.69448" lon="1.46398">
        <ele>197</ele>
        <time>2016-01-25T10:41:31Z</time>
      </trkpt>
      <trkpt lat="43.69452" lon="1.464">
        <ele>197</ele>
        <time>2016-01-25T10:43:31Z</time>
      </trkpt>
      <trkpt lat="43.69478" lon="1.46415">
        <ele>196</ele>
        <time>2016-01-25T10:45:31Z</time>
      </trkpt>
      <trkpt lat="43.69478" lon="1.46415">
        <ele>196</ele>
        <time>2016-01-25T10:47:31Z</time>
      </trkpt>
      <trkpt lat="43.69495" lon="1.46349">
        <ele>195</ele>
        <time>2016-01-25T10:49:31Z</time>
      </trkpt>
      <trkpt lat="43.69512" lon="1.46288">
        <ele>194</ele>
        <time>2016-01-25T10:51:31Z</time>
      </trkpt>
      <trkpt lat="43.69523" lon="1.46248">
        <ele>193</ele>
        <time>2016-01-25T10:53:31Z</time>
      </trkpt>
      <trkpt lat="43.69532" lon="1.46218">
        <ele>193</ele>
        <time>2016-01-25T10:55:31Z</time>
      </trkpt>
      <trkpt lat="43.6955" lon="1.46165">
        <ele>191</ele>
        <time>2016-01-25T10:57:31Z</time>
      </trkpt>
      <trkpt lat="43.69564" lon="1.46127">
        <ele>190</ele>
        <time>2016-01-25T10:59:31Z</time>
      </trkpt>
      <trkpt lat="43.69632" lon="1.45954">
        <ele>189</ele>
        <time>2016-01-25T11:01:31Z</time>
      </trkpt>
      <trkpt lat="43.69649" lon="1.45913">
        <ele>189</ele>
        <time>2016-01-25T11:03:31Z</time>
      </trkpt>
      <trkpt lat="43.69663" lon="1.45879">
        <ele>190</ele>
        <time>2016-01-25T11:05:31Z</time>
      </trkpt>
      <trkpt lat="43.69668" lon="1.45868">
        <ele>189</ele>
        <time>2016-01-25T11:07:31Z</time>
      </trkpt>
      <trkpt lat="43.69669" lon="1.45865">
        <ele>189</ele>
        <time>2016-01-25T11:09:31Z</time>
      </trkpt>
      <trkpt lat="43.6969" lon="1.45815">
        <ele>187</ele>
        <time>2016-01-25T11:11:31Z</time>
      </trkpt>
      <trkpt lat="43.69693" lon="1.45805">
        <ele>187</ele>
        <time>2016-01-25T11:13:31Z</time>
      </trkpt>
      <trkpt lat="43.69696" lon="1.45792">
        <ele>186</ele>
        <time>2016-01-25T11:15:31Z</time>
      </trkpt>
      <trkpt lat="43.69698" lon="1.45782">
        <ele>186</ele>
        <time>2016-01-25T11:17:31Z</time>
      </trkpt>
      <trkpt lat="43.69698" lon="1.45772">
        <ele>186</ele>
        <time>2016-01-25T11:19:31Z</time>
      </trkpt>
      <trkpt lat="43.69699" lon="1.4576">
        <ele>186</ele>
        <time>2016-01-25T11:21:31Z</time>
      </trkpt>
      <trkpt lat="43.69698" lon="1.45748">
        <ele>185</ele>
        <time>2016-01-25T11:23:31Z</time>
      </trkpt>
      <trkpt lat="43.69696" lon="1.45736">
        <ele>185</ele>
        <time>2016-01-25T11:25:31Z</time>
      </trkpt>
      <trkpt lat="43.69693" lon="1.45723">
        <ele>185</ele>
        <time>2016-01-25T11:27:31Z</time>
      </trkpt>
      <trkpt lat="43.69691" lon="1.45715">
        <ele>185</ele>
        <time>2016-01-25T11:29:31Z</time>
      </trkpt>
      <trkpt lat="43.69675" lon="1.4568">
        <ele>185</ele>
        <time>2016-01-25T11:31:31Z</time>
      </trkpt>
      <trkpt lat="43.69665" lon="1.45666">
        <ele>185</ele>
        <time>2016-01-25T11:33:31Z</time>
      </trkpt>
      <trkpt lat="43.69649" lon="1.45652">
        <ele>183</ele>
        <time>2016-01-25T11:35:31Z</time>
      </trkpt>
      <trkpt lat="43.69637" lon="1.45645">
        <ele>182</ele>
        <time>2016-01-25T11:37:31Z</time>
      </trkpt>
      <trkpt lat="43.69626" lon="1.4564">
        <ele>182</ele>
        <time>2016-01-25T11:39:31Z</time>
      </trkpt>
      <trkpt lat="43.69612" lon="1.45638">
        <ele>181</ele>
        <time>2016-01-25T11:41:31Z</time>
      </trkpt>
      <trkpt lat="43.69604" lon="1.45639">
        <ele>181</ele>
        <time>2016-01-25T11:43:31Z</time>
      </trkpt>
      <trkpt lat="43.69594" lon="1.45639">
        <ele>181</ele>
        <time>2016-01-25T11:45:31Z</time>
      </trkpt>
      <trkpt lat="43.69585" lon="1.45642">
        <ele>181</ele>
        <time>2016-01-25T11:47:31Z</time>
      </trkpt>
      <trkpt lat="43.69575" lon="1.45646">
        <ele>180</ele>
        <time>2016-01-25T11:49:31Z</time>
      </trkpt>
      <trkpt lat="43.69567" lon="1.4565">
        <ele>180</ele>
        <time>2016-01-25T11:51:31Z</time>
      </trkpt>
      <trkpt lat="43.6955" lon="1.45663">
        <ele>180</ele>
        <time>2016-01-25T11:53:31Z</time>
      </trkpt>
      <trkpt lat="43.69534" lon="1.45675">
        <ele>180</ele>
        <time>2016-01-25T11:55:31Z</time>
      </trkpt>
      <trkpt lat="43.69518" lon="1.45686">
        <ele>179</ele>
        <time>2016-01-25T11:57:31Z</time>
      </trkpt>
      <trkpt lat="43.6951" lon="1.45692">
        <ele>179</ele>
        <time>2016-01-25T11:59:31Z</time>
      </trkpt>
      <trkpt lat="43.69505" lon="1.45696">
        <ele>180</ele>
        <time>2016-01-25T12:01:31Z</time>
      </trkpt>
      <trkpt lat="43.69498" lon="1.457">
        <ele>179</ele>
        <time>2016-01-25T12:03:31Z</time>
      </trkpt>
      <trkpt lat="43.69492" lon="1.45704">
        <ele>179</ele>
        <time>2016-01-25T12:05:31Z</time>
      </trkpt>
      <trkpt lat="43.6948" lon="1.4571">
        <ele>179</ele>
        <time>2016-01-25T12:07:31Z</time>
      </trkpt>
      <trkpt lat="43.69466" lon="1.45717">
        <ele>178</ele>
        <time>2016-01-25T12:09:31Z</time>
      </trkpt>
      <trkpt lat="43.69456" lon="1.45721">
        <ele>178</ele>
        <time>2016-01-25T12:11:31Z</time>
      </trkpt>
      <trkpt lat="43.69448" lon="1.45723">
        <ele>177</ele>
        <time>2016-01-25T12:13:31Z</time>
      </trkpt>
      <trkpt lat="43.69439" lon="1.45725">
        <ele>177</ele>
        <time>2016-01-25T12:15:31Z</time>
      </trkpt>
      <trkpt lat="43.69432" lon="1.45727">
        <ele>176</ele>
        <time>2016-01-25T12:17:31Z</time>
      </trkpt>
      <trkpt lat="43.69423" lon="1.45727">
        <ele>175</ele>
        <time>2016-01-25T12:19:31Z</time>
      </trkpt>
      <trkpt lat="43.69413" lon="1.45727">
        <ele>175</ele>
        <time>2016-01-25T12:21:31Z</time>
      </trkpt>
      <trkpt lat="43.69404" lon="1.45726">
        <ele>174</ele>
        <time>2016-01-25T12:23:31Z</time>
      </trkpt>
      <trkpt lat="43.69395" lon="1.45725">
        <ele>174</ele>
        <time>2016-01-25T12:25:31Z</time>
      </trkpt>
      <trkpt lat="43.69388" lon="1.45723">
        <ele>174</ele>
        <time>2016-01-25T12:27:31Z</time>
      </trkpt>
      <trkpt lat="43.69357" lon="1.45713">
        <ele>173</ele>
        <time>2016-01-25T12:29:31Z</time>
      </trkpt>
      <trkpt lat="43.69331" lon="1.45702">
        <ele>172</ele>
        <time>2016-01-25T12:31:31Z</time>
      </trkpt>
      <trkpt lat="43.69327" lon="1.457">
        <ele>172</ele>
        <time>2016-01-25T12:33:31Z</time>
      </trkpt>
      <trkpt lat="43.69326" lon="1.45699">
        <ele>172</ele>
        <time>2016-01-25T12:35:31Z</time>
      </trkpt>
      <trkpt lat="43.69324" lon="1.45698">
        <ele>172</ele>
        <time>2016-01-25T12:37:31Z</time>
      </trkpt>
      <trkpt lat="43.69324" lon="1.45696">
        <ele>172</ele>
        <time>2016-01-25T12:39:31Z</time>
      </trkpt>
      <trkpt lat="43.69323" lon="1.45694">
        <ele>172</ele>
        <time>2016-01-25T12:41:31Z</time>
      </trkpt>
      <trkpt lat="43.69321" lon="1.4569">
        <ele>171</ele>
        <time>2016-01-25T12:43:31Z</time>
      </trkpt>
      <trkpt lat="43.69318" lon="1.45691">
        <ele>171</ele>
        <time>2016-01-25T12:45:31Z</time>
      </trkpt>
      <trkpt lat="43.69315" lon="1.45691">
        <ele>171</ele>
        <time>2016-01-25T12:47:31Z</time>
      </trkpt>
      <trkpt lat="43.69311" lon="1.4569">
        <ele>171</ele>
        <time>2016-01-25T12:49:31Z</time>
      </trkpt>
      <trkpt lat="43.69308" lon="1.45689">
        <ele>171</ele>
        <time>2016-01-25T12:51:31Z</time>
      </trkpt>
      <trkpt lat="43.69281" lon="1.4568">
        <ele>169</ele>
        <time>2016-01-25T12:53:31Z</time>
      </trkpt>
      <trkpt lat="43.69255" lon="1.45678">
        <ele>168</ele>
        <time>2016-01-25T12:55:31Z</time>
      </trkpt>
      <trkpt lat="43.69241" lon="1.4568">
        <ele>168</ele>
        <time>2016-01-25T12:57:31Z</time>
      </trkpt>
      <trkpt lat="43.6921" lon="1.45689">
        <ele>168</ele>
        <time>2016-01-25T12:59:31Z</time>
      </trkpt>
      <trkpt lat="43.69175" lon="1.45699">
        <ele>167</ele>
        <time>2016-01-25T13:01:31Z</time>
      </trkpt>
      <trkpt lat="43.69166" lon="1.45702">
        <ele>167</ele>
        <time>2016-01-25T13:03:31Z</time>
      </trkpt>
      <trkpt lat="43.69106" lon="1.4572">
        <ele>165</ele>
        <time>2016-01-25T13:05:31Z</time>
      </trkpt>
      <trkpt lat="43.69062" lon="1.45734">
        <ele>164</ele>
        <time>2016-01-25T13:07:31Z</time>
      </trkpt>
      <trkpt lat="43.69044" lon="1.45739">
        <ele>163</ele>
        <time>2016-01-25T13:09:31Z</time>
      </trkpt>
      <trkpt lat="43.69034" lon="1.45743">
        <ele>163</ele>
        <time>2016-01-25T13:11:31Z</time>
      </trkpt>
      <trkpt lat="43.68993" lon="1.45752">
        <ele>163</ele>
        <time>2016-01-25T13:13:31Z</time>
      </trkpt>
      <trkpt lat="43.6897" lon="1.45756">
        <ele>163</ele>
        <time>2016-01-25T13:15:31Z</time>
      </trkpt>
      <trkpt lat="43.68942" lon="1.45758">
        <ele>162</ele>
        <time>2016-01-25T13:17:31Z</time>
      </trkpt>
      <trkpt lat="43.6892" lon="1.45758">
        <ele>161</ele>
        <time>2016-01-25T13:19:31Z</time>
      </trkpt>
      <trkpt lat="43.68889" lon="1.45759">
        <ele>160</ele>
        <time>2016-01-25T13:21:31Z</time>
      </trkpt>
      <trkpt lat="43.68855" lon="1.45761">
        <ele>159</ele>
        <time>2016-01-25T13:23:31Z</time>
      </trkpt>
      <trkpt lat="43.68835" lon="1.45762">
        <ele>159</ele>
        <time>2016-01-25T13:25:31Z</time>
      </trkpt>
      <trkpt lat="43.6882" lon="1.45764">
        <ele>158</ele>
        <time>2016-01-25T13:27:31Z</time>
      </trkpt>
      <trkpt lat="43.68807" lon="1.45767">
        <ele>158</ele>
        <time>2016-01-25T13:29:31Z</time>
      </trkpt>
      <trkpt lat="43.68797" lon="1.45769">
        <ele>157</ele>
        <time>2016-01-25T13:31:31Z</time>
      </trkpt>
      <trkpt lat="43.68782" lon="1.45773">
        <ele>157</ele>
        <time>2016-01-25T13:33:31Z</time>
      </trkpt>
      <trkpt lat="43.68769" lon="1.45778">
        <ele>156</ele>
        <time>2016-01-25T13:35:31Z</time>
      </trkpt>
      <trkpt lat="43.68763" lon="1.4578">
        <ele>156</ele>
        <time>2016-01-25T13:37:31Z</time>
      </trkpt>
      <trkpt lat="43.68752" lon="1.45782">
        <ele>156</ele>
        <time>2016-01-25T13:39:31Z</time>
      </trkpt>
      <trkpt lat="43.68727" lon="1.45784">
        <ele>154</ele>
        <time>2016-01-25T13:41:31Z</time>
      </trkpt>
      <trkpt lat="43.68712" lon="1.45786">
        <ele>152</ele>
        <time>2016-01-25T13:43:31Z</time>
      </trkpt>
      <trkpt lat="43.68703" lon="1.45787">
        <ele>152</ele>
        <time>2016-01-25T13:45:31Z</time>
      </trkpt>
      <trkpt lat="43.6868" lon="1.45793">
        <ele>150</ele>
        <time>2016-01-25T13:47:31Z</time>
      </trkpt>
      <trkpt lat="43.68655" lon="1.45801">
        <ele>149</ele>
        <time>2016-01-25T13:49:31Z</time>
      </trkpt>
      <trkpt lat="43.68633" lon="1.45812">
        <ele>148</ele>
        <time>2016-01-25T13:51:31Z</time>
      </trkpt>
      <trkpt lat="43.68612" lon="1.45826">
        <ele>148</ele>
        <time>2016-01-25T13:53:31Z</time>
      </trkpt>
      <trkpt lat="43.68609" lon="1.45827">
        <ele>148</ele>
        <time>2016-01-25T13:55:31Z</time>
      </trkpt>
      <trkpt lat="43.68591" lon="1.45839">
        <ele>147</ele>
        <time>2016-01-25T13:57:31Z</time>
      </trkpt>
      <trkpt lat="43.68471" lon="1.45917">
        <ele>147</ele>
        <time>2016-01-25T13:59:31Z</time>
      </trkpt>
      <trkpt lat="43.68423" lon="1.45949">
        <ele>145</ele>
        <time>2016-01-25T14:01:31Z</time>
      </trkpt>
      <trkpt lat="43.68423" lon="1.45949">
        <ele>145</ele>
        <time>2016-01-25T14:03:31Z</time>
      </trkpt>
      <trkpt lat="43.6845" lon="1.45973">
        <ele>147</ele>
        <time>2016-01-25T14:05:31Z</time>
      </trkpt>
      <trkpt lat="43.6847" lon="1.45992">
        <ele>148</ele>
        <time>2016-01-25T14:07:31Z</time>
      </trkpt>
      <trkpt lat="43.6847" lon="1.45992">
        <ele>148</ele>
        <time>2016-01-25T14:09:31Z</time>
      </trkpt>
      <trkpt lat="43.68498" lon="1.46018">
        <ele>150</ele>
        <time>2016-01-25T14:11:31Z</time>
      </trkpt>
      <trkpt lat="43.68509" lon="1.46029">
        <ele>151</ele>
        <time>2016-01-25T14:13:31Z</time>
      </trkpt>
      <trkpt lat="43.68509" lon="1.46029">
        <ele>151</ele>
        <time>2016-01-25T14:15:31Z</time>
      </trkpt>
      <trkpt lat="43.68525" lon="1.46009">
        <ele>153</ele>
        <time>2016-01-25T14:17:31Z</time>
      </trkpt>
      <trkpt lat="43.68613" lon="1.45913">
        <ele>155</ele>
        <time>2016-01-25T14:19:31Z</time>
      </trkpt>
      <trkpt lat="43.68618" lon="1.45906">
        <ele>155</ele>
        <time>2016-01-25T14:21:31Z</time>
      </trkpt>
      <trkpt lat="43.68622" lon="1.45901">
        <ele>155</ele>
        <time>2016-01-25T14:23:31Z</time>
      </trkpt>
      <trkpt lat="43.6863" lon="1.45886">
        <ele>154</ele>
        <time>2016-01-25T14:25:31Z</time>
      </trkpt>
    </trkseg>
  </trk>
</gpx>